<?xml version="1.0" encoding="UTF-8" standalone="no" ?><gpx xmlns="http://www.topografix.com/GPX/1/1" xmlns:gpxx="http://www.garmin.com/xmlschemas/GpxExtensions/v3" xmlns:wptx1="http://www.garmin.com/xmlschemas/WaypointExtension/v1" xmlns:gpxtpx="http://www.garmin.com/xmlschemas/TrackPointExtension/v1" creator="Dakota 20" version="1.1" xmlns:xsi="http://www.w3.org/2001/XMLSchema-instance" xsi:schemaLocation="http://www.topografix.com/GPX/1/1 http://www.topografix.com/GPX/1/1/gpx.xsd http://www.garmin.com/xmlschemas/GpxExtensions/v3 http://www8.garmin.com/xmlschemas/GpxExtensionsv3.xsd http://www.garmin.com/xmlschemas/WaypointExtension/v1 http://www8.garmin.com/xmlschemas/WaypointExtensionv1.xsd http://www.garmin.com/xmlschemas/TrackPointExtension/v1 http://www.garmin.com/xmlschemas/TrackPointExtensionv1.xsd"><metadata><link href="http://www.garmin.com"><text>Garmin International</text></link><time>2013-09-11T16:02:22Z</time></metadata><trk><name>Current Track: 11 SEP 2013 09:59</name><extensions><gpxx:TrackExtension><gpxx:DisplayColor>Cyan</gpxx:DisplayColor></gpxx:TrackExtension></extensions><trkseg><trkpt lat="51.8220681231" lon="-2.0838770829"><ele>255.37</ele><time>2013-09-11T08:59:45Z</time></trkpt><trkpt lat="51.8220608309" lon="-2.0838444773"><ele>254.89</ele><time>2013-09-11T08:59:47Z</time></trkpt><trkpt lat="51.8220479228" lon="-2.0837252028"><ele>253.44</ele><time>2013-09-11T08:59:55Z</time></trkpt><trkpt lat="51.8220437318" lon="-2.0835975464"><ele>253.44</ele><time>2013-09-11T09:00:04Z</time></trkpt><trkpt lat="51.8220407143" lon="-2.0835796092"><ele>253.44</ele><time>2013-09-11T09:00:07Z</time></trkpt><trkpt lat="51.8220330868" lon="-2.0835804474"><ele>253.93</ele><time>2013-09-11T09:00:09Z</time></trkpt><trkpt lat="51.8219294865" lon="-2.0835080277"><ele>252.48</ele><time>2013-09-11T09:00:24Z</time></trkpt><trkpt lat="51.8218918517" lon="-2.0834805351"><ele>252.48</ele><time>2013-09-11T09:00:35Z</time></trkpt><trkpt lat="51.8218776863" lon="-2.0834736619"><ele>251.52</ele><time>2013-09-11T09:00:37Z</time></trkpt><trkpt lat="51.8217576575" lon="-2.0835154038"><ele>251.52</ele><time>2013-09-11T09:00:50Z</time></trkpt><trkpt lat="51.8216144107" lon="-2.0835748315"><ele>250.08</ele><time>2013-09-11T09:01:06Z</time></trkpt><trkpt lat="51.8215709925" lon="-2.0835576486"><ele>250.56</ele><time>2013-09-11T09:01:27Z</time></trkpt><trkpt lat="51.8213714194" lon="-2.0835266355"><ele>249.60</ele><time>2013-09-11T09:01:44Z</time></trkpt><trkpt lat="51.8211902026" lon="-2.0835159067"><ele>249.60</ele><time>2013-09-11T09:02:02Z</time></trkpt><trkpt lat="51.8211583514" lon="-2.0835251268"><ele>249.12</ele><time>2013-09-11T09:02:05Z</time></trkpt><trkpt lat="51.8209534138" lon="-2.0835500211"><ele>247.20</ele><time>2013-09-11T09:02:22Z</time></trkpt><trkpt lat="51.8207373284" lon="-2.0836409647"><ele>245.75</ele><time>2013-09-11T09:02:45Z</time></trkpt><trkpt lat="51.8205835205" lon="-2.0837016497"><ele>244.79</ele><time>2013-09-11T09:03:00Z</time></trkpt><trkpt lat="51.8203236815" lon="-2.0837386139"><ele>244.79</ele><time>2013-09-11T09:03:22Z</time></trkpt><trkpt lat="51.8201578036" lon="-2.0838108659"><ele>243.83</ele><time>2013-09-11T09:03:40Z</time></trkpt><trkpt lat="51.8201804347" lon="-2.0839594770"><ele>247.20</ele><time>2013-09-11T09:03:50Z</time></trkpt><trkpt lat="51.8201024830" lon="-2.0842393488"><ele>247.68</ele><time>2013-09-11T09:04:08Z</time></trkpt><trkpt lat="51.8200416304" lon="-2.0845186338"><ele>248.16</ele><time>2013-09-11T09:04:26Z</time></trkpt><trkpt lat="51.8199433107" lon="-2.0844949968"><ele>246.23</ele><time>2013-09-11T09:04:47Z</time></trkpt><trkpt lat="51.8197897542" lon="-2.0844822563"><ele>244.31</ele><time>2013-09-11T09:05:06Z</time></trkpt><trkpt lat="51.8195898458" lon="-2.0845224056"><ele>245.75</ele><time>2013-09-11T09:05:27Z</time></trkpt><trkpt lat="51.8193910271" lon="-2.0845720265"><ele>243.83</ele><time>2013-09-11T09:05:47Z</time></trkpt><trkpt lat="51.8193789572" lon="-2.0845706016"><ele>243.83</ele><time>2013-09-11T09:05:48Z</time></trkpt><trkpt lat="51.8192733452" lon="-2.0846004412"><ele>242.87</ele><time>2013-09-11T09:06:00Z</time></trkpt><trkpt lat="51.8190252408" lon="-2.0847181231"><ele>239.99</ele><time>2013-09-11T09:06:23Z</time></trkpt><trkpt lat="51.8188715167" lon="-2.0847738627"><ele>238.06</ele><time>2013-09-11T09:06:43Z</time></trkpt><trkpt lat="51.8188376538" lon="-2.0847857650"><ele>238.06</ele><time>2013-09-11T09:07:00Z</time></trkpt><trkpt lat="51.8187272642" lon="-2.0848588552"><ele>235.66</ele><time>2013-09-11T09:07:18Z</time></trkpt><trkpt lat="51.8186623883" lon="-2.0849417523"><ele>236.62</ele><time>2013-09-11T09:07:38Z</time></trkpt><trkpt lat="51.8185746297" lon="-2.0850072149"><ele>235.66</ele><time>2013-09-11T09:07:51Z</time></trkpt><trkpt lat="51.8185057305" lon="-2.0849975757"><ele>235.18</ele><time>2013-09-11T09:08:02Z</time></trkpt><trkpt lat="51.8184361607" lon="-2.0850223862"><ele>233.74</ele><time>2013-09-11T09:08:18Z</time></trkpt><trkpt lat="51.8183349073" lon="-2.0849749446"><ele>232.30</ele><time>2013-09-11T09:08:28Z</time></trkpt><trkpt lat="51.8182557821" lon="-2.0849049557"><ele>230.85</ele><time>2013-09-11T09:08:40Z</time></trkpt><trkpt lat="51.8181741424" lon="-2.0849257428"><ele>229.89</ele><time>2013-09-11T09:08:53Z</time></trkpt><trkpt lat="51.8180452287" lon="-2.0850581769"><ele>227.49</ele><time>2013-09-11T09:09:08Z</time></trkpt><trkpt lat="51.8178151455" lon="-2.0850076340"><ele>227.01</ele><time>2013-09-11T09:09:27Z</time></trkpt><trkpt lat="51.8177651893" lon="-2.0849456079"><ele>227.01</ele><time>2013-09-11T09:09:32Z</time></trkpt><trkpt lat="51.8176112976" lon="-2.0847315341"><ele>226.53</ele><time>2013-09-11T09:09:49Z</time></trkpt><trkpt lat="51.8175140675" lon="-2.0845866948"><ele>226.53</ele><time>2013-09-11T09:10:04Z</time></trkpt><trkpt lat="51.8174156640" lon="-2.0843451284"><ele>227.01</ele><time>2013-09-11T09:10:19Z</time></trkpt><trkpt lat="51.8173159193" lon="-2.0842048153"><ele>228.45</ele><time>2013-09-11T09:10:34Z</time></trkpt><trkpt lat="51.8172959704" lon="-2.0841708686"><ele>229.41</ele><time>2013-09-11T09:10:39Z</time></trkpt><trkpt lat="51.8172650412" lon="-2.0841002930"><ele>229.41</ele><time>2013-09-11T09:10:45Z</time></trkpt><trkpt lat="51.8171669729" lon="-2.0839433838"><ele>230.85</ele><time>2013-09-11T09:11:01Z</time></trkpt><trkpt lat="51.8170756940" lon="-2.0838308148"><ele>232.78</ele><time>2013-09-11T09:11:17Z</time></trkpt><trkpt lat="51.8170325272" lon="-2.0838386100"><ele>233.74</ele><time>2013-09-11T09:11:39Z</time></trkpt><trkpt lat="51.8170310184" lon="-2.0838541165"><ele>234.22</ele><time>2013-09-11T09:11:52Z</time></trkpt><trkpt lat="51.8170107342" lon="-2.0838416275"><ele>232.78</ele><time>2013-09-11T09:12:06Z</time></trkpt><trkpt lat="51.8170151766" lon="-2.0838894043"><ele>233.74</ele><time>2013-09-11T09:12:22Z</time></trkpt><trkpt lat="51.8170236424" lon="-2.0839044917"><ele>238.54</ele><time>2013-09-11T09:12:32Z</time></trkpt><trkpt lat="51.8170240615" lon="-2.0839043241"><ele>233.74</ele><time>2013-09-11T09:12:33Z</time></trkpt><trkpt lat="51.8170264084" lon="-2.0838760771"><ele>234.70</ele><time>2013-09-11T09:12:51Z</time></trkpt><trkpt lat="51.8170280848" lon="-2.0838681981"><ele>232.78</ele><time>2013-09-11T09:13:11Z</time></trkpt><trkpt lat="51.8170278333" lon="-2.0838827826"><ele>233.26</ele><time>2013-09-11T09:13:33Z</time></trkpt><trkpt lat="51.8170283362" lon="-2.0838829502"><ele>233.74</ele><time>2013-09-11T09:14:01Z</time></trkpt><trkpt lat="51.8170275819" lon="-2.0838877279"><ele>232.78</ele><time>2013-09-11T09:14:25Z</time></trkpt><trkpt lat="51.8170327786" lon="-2.0838883985"><ele>233.26</ele><time>2013-09-11T09:14:53Z</time></trkpt><trkpt lat="51.8170419987" lon="-2.0838780049"><ele>233.74</ele><time>2013-09-11T09:15:13Z</time></trkpt><trkpt lat="51.8170354608" lon="-2.0839199983"><ele>233.26</ele><time>2013-09-11T09:15:28Z</time></trkpt><trkpt lat="51.8170566671" lon="-2.0840974431"><ele>234.70</ele><time>2013-09-11T09:15:41Z</time></trkpt><trkpt lat="51.8170564994" lon="-2.0843059849"><ele>236.14</ele><time>2013-09-11T09:15:57Z</time></trkpt><trkpt lat="51.8170663901" lon="-2.0845484734"><ele>237.58</ele><time>2013-09-11T09:16:15Z</time></trkpt><trkpt lat="51.8170445133" lon="-2.0848021097"><ele>240.47</ele><time>2013-09-11T09:16:33Z</time></trkpt><trkpt lat="51.8169958144" lon="-2.0849837456"><ele>243.35</ele><time>2013-09-11T09:16:47Z</time></trkpt><trkpt lat="51.8169237301" lon="-2.0851142518"><ele>243.83</ele><time>2013-09-11T09:17:01Z</time></trkpt><trkpt lat="51.8168995902" lon="-2.0851295069"><ele>244.31</ele><time>2013-09-11T09:17:04Z</time></trkpt><trkpt lat="51.8168465327" lon="-2.0851446781"><ele>245.75</ele><time>2013-09-11T09:17:18Z</time></trkpt><trkpt lat="51.8167923018" lon="-2.0851294231"><ele>246.72</ele><time>2013-09-11T09:17:23Z</time></trkpt><trkpt lat="51.8166281004" lon="-2.0851112343"><ele>247.68</ele><time>2013-09-11T09:17:38Z</time></trkpt><trkpt lat="51.8164835125" lon="-2.0851524733"><ele>250.08</ele><time>2013-09-11T09:17:53Z</time></trkpt><trkpt lat="51.8163139466" lon="-2.0853564050"><ele>252.48</ele><time>2013-09-11T09:18:17Z</time></trkpt><trkpt lat="51.8162250146" lon="-2.0854178444"><ele>253.44</ele><time>2013-09-11T09:18:32Z</time></trkpt><trkpt lat="51.8161635753" lon="-2.0854849834"><ele>252.96</ele><time>2013-09-11T09:18:51Z</time></trkpt><trkpt lat="51.8161029741" lon="-2.0856347680"><ele>253.44</ele><time>2013-09-11T09:19:01Z</time></trkpt><trkpt lat="51.8160724640" lon="-2.0857049245"><ele>252.96</ele><time>2013-09-11T09:19:05Z</time></trkpt><trkpt lat="51.8159566261" lon="-2.0859504305"><ele>252.96</ele><time>2013-09-11T09:19:23Z</time></trkpt><trkpt lat="51.8158991262" lon="-2.0862722117"><ele>254.41</ele><time>2013-09-11T09:19:43Z</time></trkpt><trkpt lat="51.8158479966" lon="-2.0865915623"><ele>255.85</ele><time>2013-09-11T09:20:01Z</time></trkpt><trkpt lat="51.8158387765" lon="-2.0868081506"><ele>256.33</ele><time>2013-09-11T09:20:17Z</time></trkpt><trkpt lat="51.8157863896" lon="-2.0871345419"><ele>259.21</ele><time>2013-09-11T09:20:38Z</time></trkpt><trkpt lat="51.8157718051" lon="-2.0873384736"><ele>260.17</ele><time>2013-09-11T09:20:55Z</time></trkpt><trkpt lat="51.8157831207" lon="-2.0873078797"><ele>260.65</ele><time>2013-09-11T09:21:15Z</time></trkpt><trkpt lat="51.8157153949" lon="-2.0876364503"><ele>262.10</ele><time>2013-09-11T09:21:34Z</time></trkpt><trkpt lat="51.8156323303" lon="-2.0879102871"><ele>263.54</ele><time>2013-09-11T09:21:52Z</time></trkpt><trkpt lat="51.8155414704" lon="-2.0881150570"><ele>264.50</ele><time>2013-09-11T09:22:11Z</time></trkpt><trkpt lat="51.8155826256" lon="-2.0881707966"><ele>264.50</ele><time>2013-09-11T09:22:30Z</time></trkpt><trkpt lat="51.8156194221" lon="-2.0881981216"><ele>264.50</ele><time>2013-09-11T09:22:52Z</time></trkpt><trkpt lat="51.8156670313" lon="-2.0882192440"><ele>261.62</ele><time>2013-09-11T09:23:06Z</time></trkpt><trkpt lat="51.8158930074" lon="-2.0883293822"><ele>261.14</ele><time>2013-09-11T09:23:28Z</time></trkpt><trkpt lat="51.8161629047" lon="-2.0884372573"><ele>260.65</ele><time>2013-09-11T09:23:51Z</time></trkpt><trkpt lat="51.8163967598" lon="-2.0885736309"><ele>258.25</ele><time>2013-09-11T09:24:12Z</time></trkpt><trkpt lat="51.8165079877" lon="-2.0885740500"><ele>258.73</ele><time>2013-09-11T09:24:30Z</time></trkpt><trkpt lat="51.8165426888" lon="-2.0886351541"><ele>257.77</ele><time>2013-09-11T09:24:43Z</time></trkpt><trkpt lat="51.8165682536" lon="-2.0887411851"><ele>257.29</ele><time>2013-09-11T09:24:57Z</time></trkpt><trkpt lat="51.8165708520" lon="-2.0888334699"><ele>258.25</ele><time>2013-09-11T09:25:05Z</time></trkpt><trkpt lat="51.8165742885" lon="-2.0890800655"><ele>256.33</ele><time>2013-09-11T09:25:24Z</time></trkpt><trkpt lat="51.8165747914" lon="-2.0891395770"><ele>255.85</ele><time>2013-09-11T09:25:28Z</time></trkpt><trkpt lat="51.8165994342" lon="-2.0895110629"><ele>254.89</ele><time>2013-09-11T09:25:53Z</time></trkpt><trkpt lat="51.8166404217" lon="-2.0897049364"><ele>252.48</ele><time>2013-09-11T09:26:13Z</time></trkpt><trkpt lat="51.8166946527" lon="-2.0898422319"><ele>249.60</ele><time>2013-09-11T09:26:26Z</time></trkpt><trkpt lat="51.8167898711" lon="-2.0900907554"><ele>246.72</ele><time>2013-09-11T09:26:48Z</time></trkpt><trkpt lat="51.8168591056" lon="-2.0902478322"><ele>245.27</ele><time>2013-09-11T09:27:13Z</time></trkpt><trkpt lat="51.8168770429" lon="-2.0902687032"><ele>245.27</ele><time>2013-09-11T09:27:20Z</time></trkpt><trkpt lat="51.8169354647" lon="-2.0903613232"><ele>245.27</ele><time>2013-09-11T09:27:36Z</time></trkpt><trkpt lat="51.8169005960" lon="-2.0903937612"><ele>245.27</ele><time>2013-09-11T09:28:01Z</time></trkpt><trkpt lat="51.8168815691" lon="-2.0903685316"><ele>245.27</ele><time>2013-09-11T09:28:19Z</time></trkpt><trkpt lat="51.8169011828" lon="-2.0904635824"><ele>244.79</ele><time>2013-09-11T09:28:37Z</time></trkpt><trkpt lat="51.8168839160" lon="-2.0905062463"><ele>244.79</ele><time>2013-09-11T09:28:54Z</time></trkpt><trkpt lat="51.8168990873" lon="-2.0905085094"><ele>245.27</ele><time>2013-09-11T09:29:18Z</time></trkpt><trkpt lat="51.8169584312" lon="-2.0903339982"><ele>244.79</ele><time>2013-09-11T09:29:34Z</time></trkpt><trkpt lat="51.8170430046" lon="-2.0903599821"><ele>243.35</ele><time>2013-09-11T09:29:54Z</time></trkpt><trkpt lat="51.8170404062" lon="-2.0903075114"><ele>241.43</ele><time>2013-09-11T09:30:18Z</time></trkpt><trkpt lat="51.8171217106" lon="-2.0902607404"><ele>239.51</ele><time>2013-09-11T09:30:37Z</time></trkpt><trkpt lat="51.8172934558" lon="-2.0902691223"><ele>238.54</ele><time>2013-09-11T09:30:46Z</time></trkpt><trkpt lat="51.8175155763" lon="-2.0901680365"><ele>236.14</ele><time>2013-09-11T09:31:05Z</time></trkpt><trkpt lat="51.8176936917" lon="-2.0900718961"><ele>234.70</ele><time>2013-09-11T09:31:25Z</time></trkpt><trkpt lat="51.8178415485" lon="-2.0900197607"><ele>234.70</ele><time>2013-09-11T09:31:42Z</time></trkpt><trkpt lat="51.8180218432" lon="-2.0898273960"><ele>233.26</ele><time>2013-09-11T09:31:59Z</time></trkpt><trkpt lat="51.8181266170" lon="-2.0898828004"><ele>231.81</ele><time>2013-09-11T09:32:14Z</time></trkpt><trkpt lat="51.8181976117" lon="-2.0899941958"><ele>231.81</ele><time>2013-09-11T09:32:28Z</time></trkpt><trkpt lat="51.8182009645" lon="-2.0899905916"><ele>232.78</ele><time>2013-09-11T09:32:52Z</time></trkpt><trkpt lat="51.8181773275" lon="-2.0899846405"><ele>232.78</ele><time>2013-09-11T09:33:17Z</time></trkpt><trkpt lat="51.8182314746" lon="-2.0900738239"><ele>232.30</ele><time>2013-09-11T09:33:32Z</time></trkpt><trkpt lat="51.8182929978" lon="-2.0901652705"><ele>232.78</ele><time>2013-09-11T09:33:40Z</time></trkpt><trkpt lat="51.8184025493" lon="-2.0902688708"><ele>233.26</ele><time>2013-09-11T09:33:54Z</time></trkpt><trkpt lat="51.8184740469" lon="-2.0903600659"><ele>235.18</ele><time>2013-09-11T09:34:06Z</time></trkpt><trkpt lat="51.8185089994" lon="-2.0904232655"><ele>235.66</ele><time>2013-09-11T09:34:21Z</time></trkpt><trkpt lat="51.8185625598" lon="-2.0905422047"><ele>235.66</ele><time>2013-09-11T09:34:36Z</time></trkpt><trkpt lat="51.8186068162" lon="-2.0906332321"><ele>235.66</ele><time>2013-09-11T09:34:43Z</time></trkpt><trkpt lat="51.8186555151" lon="-2.0907740481"><ele>235.18</ele><time>2013-09-11T09:34:56Z</time></trkpt><trkpt lat="51.8187053036" lon="-2.0909939054"><ele>235.66</ele><time>2013-09-11T09:35:10Z</time></trkpt><trkpt lat="51.8187617138" lon="-2.0911832526"><ele>235.66</ele><time>2013-09-11T09:35:23Z</time></trkpt><trkpt lat="51.8187637255" lon="-2.0912175346"><ele>236.14</ele><time>2013-09-11T09:35:25Z</time></trkpt><trkpt lat="51.8188234046" lon="-2.0914606936"><ele>236.14</ele><time>2013-09-11T09:35:42Z</time></trkpt><trkpt lat="51.8188912980" lon="-2.0916969795"><ele>236.14</ele><time>2013-09-11T09:35:58Z</time></trkpt><trkpt lat="51.8189031165" lon="-2.0917507075"><ele>235.66</ele><time>2013-09-11T09:36:03Z</time></trkpt><trkpt lat="51.8189327884" lon="-2.0918795373"><ele>236.14</ele><time>2013-09-11T09:36:13Z</time></trkpt><trkpt lat="51.8190021906" lon="-2.0920678787"><ele>235.66</ele><time>2013-09-11T09:36:27Z</time></trkpt><trkpt lat="51.8190559186" lon="-2.0922801085"><ele>235.66</ele><time>2013-09-11T09:36:42Z</time></trkpt><trkpt lat="51.8191236444" lon="-2.0924548712"><ele>234.70</ele><time>2013-09-11T09:36:56Z</time></trkpt><trkpt lat="51.8191766180" lon="-2.0925842877"><ele>233.74</ele><time>2013-09-11T09:37:06Z</time></trkpt><trkpt lat="51.8192459363" lon="-2.0927339885"><ele>234.22</ele><time>2013-09-11T09:37:21Z</time></trkpt><trkpt lat="51.8192571681" lon="-2.0927575417"><ele>233.74</ele><time>2013-09-11T09:37:36Z</time></trkpt><trkpt lat="51.8192754406" lon="-2.0927582961"><ele>234.22</ele><time>2013-09-11T09:37:51Z</time></trkpt><trkpt lat="51.8192844093" lon="-2.0927609783"><ele>233.26</ele><time>2013-09-11T09:38:09Z</time></trkpt><trkpt lat="51.8192904443" lon="-2.0927707851"><ele>233.26</ele><time>2013-09-11T09:38:33Z</time></trkpt><trkpt lat="51.8192590959" lon="-2.0927723777"><ele>233.26</ele><time>2013-09-11T09:38:54Z</time></trkpt><trkpt lat="51.8192546535" lon="-2.0927707851"><ele>233.26</ele><time>2013-09-11T09:39:15Z</time></trkpt><trkpt lat="51.8192691542" lon="-2.0927803405"><ele>233.26</ele><time>2013-09-11T09:39:41Z</time></trkpt><trkpt lat="51.8193562422" lon="-2.0929676760"><ele>233.74</ele><time>2013-09-11T09:39:54Z</time></trkpt><trkpt lat="51.8194404803" lon="-2.0931958314"><ele>233.74</ele><time>2013-09-11T09:40:06Z</time></trkpt><trkpt lat="51.8195185158" lon="-2.0935093984"><ele>234.70</ele><time>2013-09-11T09:40:24Z</time></trkpt><trkpt lat="51.8195600901" lon="-2.0936259069"><ele>234.22</ele><time>2013-09-11T09:40:30Z</time></trkpt><trkpt lat="51.8195920251" lon="-2.0937497914"><ele>234.22</ele><time>2013-09-11T09:40:37Z</time></trkpt><trkpt lat="51.8196552247" lon="-2.0940387156"><ele>234.70</ele><time>2013-09-11T09:40:53Z</time></trkpt><trkpt lat="51.8196631875" lon="-2.0940946229"><ele>234.22</ele><time>2013-09-11T09:40:56Z</time></trkpt><trkpt lat="51.8196911830" lon="-2.0942719001"><ele>235.18</ele><time>2013-09-11T09:41:07Z</time></trkpt><trkpt lat="51.8197043426" lon="-2.0943448227"><ele>235.18</ele><time>2013-09-11T09:41:11Z</time></trkpt><trkpt lat="51.8197104614" lon="-2.0945075992"><ele>235.66</ele><time>2013-09-11T09:41:21Z</time></trkpt><trkpt lat="51.8197256327" lon="-2.0946044941"><ele>235.66</ele><time>2013-09-11T09:41:26Z</time></trkpt><trkpt lat="51.8198228627" lon="-2.0948624890"><ele>235.66</ele><time>2013-09-11T09:41:42Z</time></trkpt><trkpt lat="51.8199050892" lon="-2.0951050613"><ele>237.58</ele><time>2013-09-11T09:41:56Z</time></trkpt><trkpt lat="51.8200018164" lon="-2.0953533333"><ele>239.02</ele><time>2013-09-11T09:42:11Z</time></trkpt><trkpt lat="51.8200758286" lon="-2.0955827460"><ele>240.95</ele><time>2013-09-11T09:42:25Z</time></trkpt><trkpt lat="51.8201044109" lon="-2.0956854243"><ele>242.39</ele><time>2013-09-11T09:42:32Z</time></trkpt><trkpt lat="51.8201315682" lon="-2.0957978256"><ele>243.83</ele><time>2013-09-11T09:42:40Z</time></trkpt><trkpt lat="51.8201966956" lon="-2.0960404817"><ele>244.79</ele><time>2013-09-11T09:42:54Z</time></trkpt><trkpt lat="51.8202155549" lon="-2.0962027553"><ele>246.23</ele><time>2013-09-11T09:43:03Z</time></trkpt><trkpt lat="51.8202215899" lon="-2.0963608380"><ele>246.72</ele><time>2013-09-11T09:43:13Z</time></trkpt><trkpt lat="51.8202299718" lon="-2.0966321602"><ele>247.20</ele><time>2013-09-11T09:43:28Z</time></trkpt><trkpt lat="51.8202381022" lon="-2.0967385266"><ele>247.20</ele><time>2013-09-11T09:43:34Z</time></trkpt><trkpt lat="51.8202749826" lon="-2.0969987847"><ele>248.16</ele><time>2013-09-11T09:43:50Z</time></trkpt><trkpt lat="51.8202950153" lon="-2.0971929096"><ele>249.60</ele><time>2013-09-11T09:44:05Z</time></trkpt><trkpt lat="51.8202943448" lon="-2.0972307958"><ele>249.12</ele><time>2013-09-11T09:44:19Z</time></trkpt><trkpt lat="51.8203512579" lon="-2.0974970888"><ele>250.56</ele><time>2013-09-11T09:44:34Z</time></trkpt><trkpt lat="51.8203800078" lon="-2.0976980869"><ele>252.00</ele><time>2013-09-11T09:44:46Z</time></trkpt><trkpt lat="51.8203829415" lon="-2.0977103245"><ele>251.52</ele><time>2013-09-11T09:44:47Z</time></trkpt><trkpt lat="51.8203864619" lon="-2.0977379847"><ele>252.00</ele><time>2013-09-11T09:44:49Z</time></trkpt><trkpt lat="51.8204046506" lon="-2.0979781263"><ele>251.52</ele><time>2013-09-11T09:45:04Z</time></trkpt><trkpt lat="51.8204132002" lon="-2.0980331115"><ele>252.00</ele><time>2013-09-11T09:45:07Z</time></trkpt><trkpt lat="51.8204266112" lon="-2.0981194451"><ele>252.00</ele><time>2013-09-11T09:45:12Z</time></trkpt><trkpt lat="51.8204460572" lon="-2.0981626958"><ele>253.44</ele><time>2013-09-11T09:45:15Z</time></trkpt><trkpt lat="51.8204703648" lon="-2.0983572397"><ele>253.44</ele><time>2013-09-11T09:45:27Z</time></trkpt><trkpt lat="51.8205161300" lon="-2.0985294040"><ele>253.93</ele><time>2013-09-11T09:45:39Z</time></trkpt><trkpt lat="51.8205825146" lon="-2.0986767579"><ele>254.89</ele><time>2013-09-11T09:45:51Z</time></trkpt><trkpt lat="51.8205923215" lon="-2.0987024903"><ele>255.37</ele><time>2013-09-11T09:45:53Z</time></trkpt><trkpt lat="51.8206056487" lon="-2.0987756643"><ele>255.85</ele><time>2013-09-11T09:46:06Z</time></trkpt><trkpt lat="51.8206049781" lon="-2.0989337470"><ele>255.37</ele><time>2013-09-11T09:46:24Z</time></trkpt><trkpt lat="51.8206153717" lon="-2.0991824381"><ele>255.37</ele><time>2013-09-11T09:46:38Z</time></trkpt><trkpt lat="51.8206186406" lon="-2.0992341544"><ele>255.37</ele><time>2013-09-11T09:46:41Z</time></trkpt><trkpt lat="51.8206305429" lon="-2.0992981922"><ele>254.89</ele><time>2013-09-11T09:46:44Z</time></trkpt><trkpt lat="51.8206511624" lon="-2.0994220767"><ele>256.33</ele><time>2013-09-11T09:46:52Z</time></trkpt><trkpt lat="51.8206576165" lon="-2.0994814206"><ele>255.37</ele><time>2013-09-11T09:47:10Z</time></trkpt><trkpt lat="51.8206769787" lon="-2.0994597953"><ele>256.33</ele><time>2013-09-11T09:47:23Z</time></trkpt><trkpt lat="51.8206784874" lon="-2.0994376671"><ele>255.85</ele><time>2013-09-11T09:47:46Z</time></trkpt><trkpt lat="51.8206856959" lon="-2.0994386729"><ele>254.89</ele><time>2013-09-11T09:48:02Z</time></trkpt><trkpt lat="51.8206739612" lon="-2.0994405169"><ele>255.85</ele><time>2013-09-11T09:48:22Z</time></trkpt><trkpt lat="51.8206644058" lon="-2.0994214062"><ele>255.37</ele><time>2013-09-11T09:48:26Z</time></trkpt><trkpt lat="51.8206587061" lon="-2.0993909799"><ele>255.85</ele><time>2013-09-11T09:48:43Z</time></trkpt><trkpt lat="51.8206751347" lon="-2.0993877947"><ele>255.85</ele><time>2013-09-11T09:49:05Z</time></trkpt><trkpt lat="51.8206784874" lon="-2.0993902255"><ele>255.85</ele><time>2013-09-11T09:49:31Z</time></trkpt><trkpt lat="51.8206813373" lon="-2.0993928239"><ele>256.33</ele><time>2013-09-11T09:49:58Z</time></trkpt><trkpt lat="51.8206832651" lon="-2.0993781555"><ele>257.29</ele><time>2013-09-11T09:50:23Z</time></trkpt><trkpt lat="51.8207025435" lon="-2.0993797481"><ele>256.81</ele><time>2013-09-11T09:50:30Z</time></trkpt><trkpt lat="51.8207763880" lon="-2.0994274411"><ele>256.81</ele><time>2013-09-11T09:50:37Z</time></trkpt><trkpt lat="51.8208068982" lon="-2.0994359069"><ele>257.77</ele><time>2013-09-11T09:50:40Z</time></trkpt><trkpt lat="51.8208779767" lon="-2.0994786546"><ele>259.21</ele><time>2013-09-11T09:50:49Z</time></trkpt><trkpt lat="51.8210225645" lon="-2.0995901339"><ele>260.65</ele><time>2013-09-11T09:51:04Z</time></trkpt><trkpt lat="51.8211398274" lon="-2.0996674988"><ele>261.14</ele><time>2013-09-11T09:51:17Z</time></trkpt><trkpt lat="51.8212526478" lon="-2.0997505635"><ele>262.10</ele><time>2013-09-11T09:51:29Z</time></trkpt><trkpt lat="51.8213757779" lon="-2.0998282637"><ele>262.58</ele><time>2013-09-11T09:51:42Z</time></trkpt><trkpt lat="51.8215046078" lon="-2.0999159385"><ele>264.02</ele><time>2013-09-11T09:51:55Z</time></trkpt><trkpt lat="51.8215611856" lon="-2.0999728516"><ele>263.54</ele><time>2013-09-11T09:52:01Z</time></trkpt><trkpt lat="51.8217184301" lon="-2.1000135038"><ele>264.50</ele><time>2013-09-11T09:52:15Z</time></trkpt><trkpt lat="51.8218702264" lon="-2.1000549942"><ele>265.46</ele><time>2013-09-11T09:52:29Z</time></trkpt><trkpt lat="51.8220348470" lon="-2.1001166012"><ele>265.46</ele><time>2013-09-11T09:52:43Z</time></trkpt><trkpt lat="51.8221987970" lon="-2.1001668926"><ele>265.94</ele><time>2013-09-11T09:52:59Z</time></trkpt><trkpt lat="51.8223606516" lon="-2.1002105623"><ele>266.42</ele><time>2013-09-11T09:53:14Z</time></trkpt><trkpt lat="51.8224609829" lon="-2.1002553217"><ele>265.94</ele><time>2013-09-11T09:53:23Z</time></trkpt><trkpt lat="51.8225974403" lon="-2.1003533062"><ele>264.98</ele><time>2013-09-11T09:53:37Z</time></trkpt><trkpt lat="51.8227614742" lon="-2.1004779451"><ele>265.46</ele><time>2013-09-11T09:53:52Z</time></trkpt><trkpt lat="51.8229219876" lon="-2.1005799528"><ele>264.98</ele><time>2013-09-11T09:54:06Z</time></trkpt><trkpt lat="51.8229991011" lon="-2.1006574854"><ele>264.50</ele><time>2013-09-11T09:54:14Z</time></trkpt><trkpt lat="51.8231366482" lon="-2.1007663663"><ele>264.50</ele><time>2013-09-11T09:54:28Z</time></trkpt><trkpt lat="51.8232644722" lon="-2.1008837130"><ele>265.46</ele><time>2013-09-11T09:54:45Z</time></trkpt><trkpt lat="51.8232724350" lon="-2.1008866467"><ele>264.98</ele><time>2013-09-11T09:54:57Z</time></trkpt><trkpt lat="51.8232744467" lon="-2.1008954477"><ele>265.46</ele><time>2013-09-11T09:55:12Z</time></trkpt><trkpt lat="51.8232959043" lon="-2.1009029076"><ele>265.94</ele><time>2013-09-11T09:55:27Z</time></trkpt><trkpt lat="51.8232962396" lon="-2.1009481698"><ele>265.46</ele><time>2013-09-11T09:55:39Z</time></trkpt><trkpt lat="51.8233652227" lon="-2.1010033228"><ele>265.94</ele><time>2013-09-11T09:55:50Z</time></trkpt><trkpt lat="51.8233819865" lon="-2.1010116208"><ele>265.94</ele><time>2013-09-11T09:55:52Z</time></trkpt><trkpt lat="51.8235098943" lon="-2.1010911651"><ele>266.42</ele><time>2013-09-11T09:56:05Z</time></trkpt><trkpt lat="51.8236599304" lon="-2.1011780854"><ele>266.42</ele><time>2013-09-11T09:56:21Z</time></trkpt><trkpt lat="51.8237818871" lon="-2.1012673527"><ele>268.35</ele><time>2013-09-11T09:56:35Z</time></trkpt><trkpt lat="51.8239390478" lon="-2.1013445500"><ele>268.83</ele><time>2013-09-11T09:56:51Z</time></trkpt><trkpt lat="51.8240068574" lon="-2.1013867110"><ele>269.31</ele><time>2013-09-11T09:57:05Z</time></trkpt><trkpt lat="51.8240164127" lon="-2.1013947576"><ele>269.31</ele><time>2013-09-11T09:57:07Z</time></trkpt><trkpt lat="51.8241399620" lon="-2.1014932450"><ele>270.75</ele><time>2013-09-11T09:57:18Z</time></trkpt><trkpt lat="51.8241745792" lon="-2.1014979389"><ele>269.79</ele><time>2013-09-11T09:57:21Z</time></trkpt><trkpt lat="51.8242072687" lon="-2.1015017945"><ele>270.27</ele><time>2013-09-11T09:57:24Z</time></trkpt><trkpt lat="51.8243550416" lon="-2.1015699394"><ele>271.23</ele><time>2013-09-11T09:57:39Z</time></trkpt><trkpt lat="51.8243762478" lon="-2.1015799139"><ele>271.23</ele><time>2013-09-11T09:57:41Z</time></trkpt><trkpt lat="51.8244770821" lon="-2.1016188897"><ele>272.19</ele><time>2013-09-11T09:57:54Z</time></trkpt><trkpt lat="51.8245993741" lon="-2.1016209014"><ele>273.15</ele><time>2013-09-11T09:58:07Z</time></trkpt><trkpt lat="51.8246750627" lon="-2.1016691811"><ele>274.11</ele><time>2013-09-11T09:58:21Z</time></trkpt><trkpt lat="51.8246880546" lon="-2.1016961709"><ele>274.59</ele><time>2013-09-11T09:58:35Z</time></trkpt><trkpt lat="51.8246951792" lon="-2.1017168742"><ele>274.11</ele><time>2013-09-11T09:58:52Z</time></trkpt><trkpt lat="51.8246851210" lon="-2.1017181315"><ele>274.11</ele><time>2013-09-11T09:59:13Z</time></trkpt><trkpt lat="51.8246836960" lon="-2.1017205622"><ele>274.11</ele><time>2013-09-11T09:59:35Z</time></trkpt><trkpt lat="51.8246799242" lon="-2.1017267648"><ele>274.59</ele><time>2013-09-11T09:59:59Z</time></trkpt><trkpt lat="51.8246782478" lon="-2.1017255075"><ele>273.63</ele><time>2013-09-11T10:00:18Z</time></trkpt><trkpt lat="51.8246786669" lon="-2.1017421875"><ele>274.59</ele><time>2013-09-11T10:00:40Z</time></trkpt><trkpt lat="51.8247038964" lon="-2.1017671656"><ele>274.11</ele><time>2013-09-11T10:00:51Z</time></trkpt><trkpt lat="51.8247939181" lon="-2.1016072389"><ele>275.07</ele><time>2013-09-11T10:01:04Z</time></trkpt><trkpt lat="51.8248543516" lon="-2.1014762297"><ele>274.59</ele><time>2013-09-11T10:01:14Z</time></trkpt><trkpt lat="51.8249245919" lon="-2.1013065800"><ele>275.07</ele><time>2013-09-11T10:01:27Z</time></trkpt><trkpt lat="51.8249464687" lon="-2.1012563724"><ele>275.07</ele><time>2013-09-11T10:01:33Z</time></trkpt><trkpt lat="51.8249554373" lon="-2.1012075059"><ele>275.07</ele><time>2013-09-11T10:01:36Z</time></trkpt><trkpt lat="51.8249658309" lon="-2.1010858845"><ele>275.56</ele><time>2013-09-11T10:01:49Z</time></trkpt><trkpt lat="51.8249784876" lon="-2.1010884829"><ele>275.56</ele><time>2013-09-11T10:02:05Z</time></trkpt><trkpt lat="51.8250063155" lon="-2.1010308992"><ele>276.04</ele><time>2013-09-11T10:02:17Z</time></trkpt><trkpt lat="51.8250608817" lon="-2.1009951085"><ele>276.52</ele><time>2013-09-11T10:02:23Z</time></trkpt><trkpt lat="51.8251991831" lon="-2.1008200943"><ele>277.00</ele><time>2013-09-11T10:02:38Z</time></trkpt><trkpt lat="51.8252301961" lon="-2.1007462498"><ele>277.48</ele><time>2013-09-11T10:02:43Z</time></trkpt><trkpt lat="51.8253581878" lon="-2.1005003247"><ele>278.92</ele><time>2013-09-11T10:03:02Z</time></trkpt><trkpt lat="51.8254602794" lon="-2.1003153361"><ele>279.88</ele><time>2013-09-11T10:03:19Z</time></trkpt><trkpt lat="51.8255679030" lon="-2.1002139989"><ele>280.36</ele><time>2013-09-11T10:03:32Z</time></trkpt><trkpt lat="51.8256313540" lon="-2.1001847461"><ele>280.36</ele><time>2013-09-11T10:03:45Z</time></trkpt><trkpt lat="51.8257462699" lon="-2.1002608538"><ele>281.32</ele><time>2013-09-11T10:03:59Z</time></trkpt><trkpt lat="51.8257603515" lon="-2.1003307588"><ele>280.84</ele><time>2013-09-11T10:04:15Z</time></trkpt><trkpt lat="51.8257958908" lon="-2.1004259773"><ele>280.84</ele><time>2013-09-11T10:04:23Z</time></trkpt><trkpt lat="51.8258585036" lon="-2.1008331701"><ele>280.84</ele><time>2013-09-11T10:04:42Z</time></trkpt><trkpt lat="51.8259103037" lon="-2.1010806877"><ele>280.84</ele><time>2013-09-11T10:04:56Z</time></trkpt><trkpt lat="51.8259739224" lon="-2.1013585478"><ele>280.84</ele><time>2013-09-11T10:05:11Z</time></trkpt><trkpt lat="51.8260369543" lon="-2.1016519982"><ele>280.84</ele><time>2013-09-11T10:05:27Z</time></trkpt><trkpt lat="51.8260877486" lon="-2.1018714365"><ele>282.28</ele><time>2013-09-11T10:05:41Z</time></trkpt><trkpt lat="51.8261437397" lon="-2.1021214686"><ele>281.80</ele><time>2013-09-11T10:05:55Z</time></trkpt><trkpt lat="51.8261946179" lon="-2.1023628674"><ele>281.80</ele><time>2013-09-11T10:06:12Z</time></trkpt><trkpt lat="51.8262033351" lon="-2.1023963112"><ele>281.80</ele><time>2013-09-11T10:06:14Z</time></trkpt><trkpt lat="51.8262734916" lon="-2.1026814636"><ele>282.77</ele><time>2013-09-11T10:06:31Z</time></trkpt><trkpt lat="51.8262889143" lon="-2.1028008219"><ele>283.25</ele><time>2013-09-11T10:06:42Z</time></trkpt><trkpt lat="51.8263117131" lon="-2.1028061025"><ele>282.77</ele><time>2013-09-11T10:06:44Z</time></trkpt><trkpt lat="51.8263296504" lon="-2.1028374508"><ele>283.25</ele><time>2013-09-11T10:06:47Z</time></trkpt><trkpt lat="51.8263867311" lon="-2.1031065937"><ele>282.77</ele><time>2013-09-11T10:07:03Z</time></trkpt><trkpt lat="51.8263979629" lon="-2.1032718848"><ele>282.77</ele><time>2013-09-11T10:07:10Z</time></trkpt><trkpt lat="51.8264507689" lon="-2.1034639142"><ele>283.25</ele><time>2013-09-11T10:07:22Z</time></trkpt><trkpt lat="51.8265120406" lon="-2.1037050616"><ele>283.25</ele><time>2013-09-11T10:07:37Z</time></trkpt><trkpt lat="51.8265897408" lon="-2.1039571892"><ele>283.25</ele><time>2013-09-11T10:07:53Z</time></trkpt><trkpt lat="51.8266489170" lon="-2.1041596960"><ele>283.73</ele><time>2013-09-11T10:08:09Z</time></trkpt><trkpt lat="51.8267013039" lon="-2.1043627057"><ele>284.21</ele><time>2013-09-11T10:08:28Z</time></trkpt><trkpt lat="51.8267631624" lon="-2.1046103910"><ele>285.17</ele><time>2013-09-11T10:08:46Z</time></trkpt><trkpt lat="51.8267905712" lon="-2.1048621833"><ele>285.17</ele><time>2013-09-11T10:09:04Z</time></trkpt><trkpt lat="51.8267619051" lon="-2.1050325874"><ele>285.65</ele><time>2013-09-11T10:09:22Z</time></trkpt><trkpt lat="51.8267640006" lon="-2.1050358564"><ele>285.17</ele><time>2013-09-11T10:09:39Z</time></trkpt><trkpt lat="51.8267332390" lon="-2.1050645225"><ele>285.65</ele><time>2013-09-11T10:09:59Z</time></trkpt><trkpt lat="51.8267228454" lon="-2.1050662827"><ele>285.65</ele><time>2013-09-11T10:10:25Z</time></trkpt><trkpt lat="51.8266597297" lon="-2.1050680429"><ele>285.17</ele><time>2013-09-11T10:10:51Z</time></trkpt><trkpt lat="51.8267087638" lon="-2.1050739102"><ele>285.65</ele><time>2013-09-11T10:11:12Z</time></trkpt><trkpt lat="51.8266954366" lon="-2.1050806995"><ele>284.69</ele><time>2013-09-11T10:11:37Z</time></trkpt><trkpt lat="51.8267150503" lon="-2.1051077731"><ele>285.65</ele><time>2013-09-11T10:11:54Z</time></trkpt><trkpt lat="51.8266949337" lon="-2.1051106229"><ele>285.17</ele><time>2013-09-11T10:12:11Z</time></trkpt><trkpt lat="51.8267096020" lon="-2.1050390415"><ele>284.69</ele><time>2013-09-11T10:12:35Z</time></trkpt><trkpt lat="51.8267512601" lon="-2.1050588228"><ele>285.65</ele><time>2013-09-11T10:12:57Z</time></trkpt><trkpt lat="51.8267681077" lon="-2.1050817054"><ele>285.17</ele><time>2013-09-11T10:13:23Z</time></trkpt><trkpt lat="51.8267251085" lon="-2.1050950326"><ele>285.17</ele><time>2013-09-11T10:13:47Z</time></trkpt><trkpt lat="51.8267830275" lon="-2.1050700545"><ele>285.17</ele><time>2013-09-11T10:14:04Z</time></trkpt><trkpt lat="51.8267831113" lon="-2.1050874889"><ele>285.17</ele><time>2013-09-11T10:14:28Z</time></trkpt><trkpt lat="51.8267690297" lon="-2.1050968766"><ele>285.17</ele><time>2013-09-11T10:14:51Z</time></trkpt><trkpt lat="51.8267722987" lon="-2.1050974634"><ele>285.17</ele><time>2013-09-11T10:15:14Z</time></trkpt><trkpt lat="51.8267759867" lon="-2.1051148977"><ele>285.65</ele><time>2013-09-11T10:15:39Z</time></trkpt><trkpt lat="51.8267620727" lon="-2.1051171608"><ele>284.69</ele><time>2013-09-11T10:16:06Z</time></trkpt><trkpt lat="51.8267671857" lon="-2.1051149815"><ele>285.17</ele><time>2013-09-11T10:16:28Z</time></trkpt><trkpt lat="51.8267717119" lon="-2.1051051747"><ele>284.69</ele><time>2013-09-11T10:16:47Z</time></trkpt><trkpt lat="51.8267689459" lon="-2.1050848905"><ele>285.17</ele><time>2013-09-11T10:17:06Z</time></trkpt><trkpt lat="51.8267598934" lon="-2.1050807834"><ele>284.69</ele><time>2013-09-11T10:17:29Z</time></trkpt><trkpt lat="51.8267575465" lon="-2.1050855611"><ele>284.69</ele><time>2013-09-11T10:17:56Z</time></trkpt><trkpt lat="51.8267463148" lon="-2.1050883271"><ele>285.65</ele><time>2013-09-11T10:18:16Z</time></trkpt><trkpt lat="51.8267426267" lon="-2.1050879918"><ele>284.69</ele><time>2013-09-11T10:18:42Z</time></trkpt><trkpt lat="51.8267451413" lon="-2.1050896682"><ele>285.17</ele><time>2013-09-11T10:19:10Z</time></trkpt><trkpt lat="51.8267473206" lon="-2.1050998941"><ele>285.65</ele><time>2013-09-11T10:19:32Z</time></trkpt><trkpt lat="51.8267416209" lon="-2.1051079407"><ele>285.17</ele><time>2013-09-11T10:19:57Z</time></trkpt><trkpt lat="51.8267294671" lon="-2.1051203460"><ele>284.69</ele><time>2013-09-11T10:20:27Z</time></trkpt><trkpt lat="51.8267365918" lon="-2.1051253751"><ele>284.69</ele><time>2013-09-11T10:20:55Z</time></trkpt><trkpt lat="51.8267414533" lon="-2.1051243693"><ele>284.69</ele><time>2013-09-11T10:21:21Z</time></trkpt><trkpt lat="51.8267430458" lon="-2.1051187534"><ele>284.21</ele><time>2013-09-11T10:21:43Z</time></trkpt><trkpt lat="51.8267518468" lon="-2.1051143948"><ele>284.69</ele><time>2013-09-11T10:22:02Z</time></trkpt><trkpt lat="51.8267670181" lon="-2.1051159874"><ele>284.69</ele><time>2013-09-11T10:22:34Z</time></trkpt><trkpt lat="51.8267599773" lon="-2.1050948650"><ele>285.17</ele><time>2013-09-11T10:23:00Z</time></trkpt><trkpt lat="51.8268033955" lon="-2.1050726529"><ele>284.69</ele><time>2013-09-11T10:23:24Z</time></trkpt><trkpt lat="51.8268096820" lon="-2.1050863154"><ele>284.69</ele><time>2013-09-11T10:23:27Z</time></trkpt><trkpt lat="51.8268366717" lon="-2.1051279735"><ele>283.73</ele><time>2013-09-11T10:23:32Z</time></trkpt><trkpt lat="51.8268701993" lon="-2.1053234395"><ele>285.65</ele><time>2013-09-11T10:23:45Z</time></trkpt><trkpt lat="51.8269322254" lon="-2.1054800972"><ele>285.17</ele><time>2013-09-11T10:23:58Z</time></trkpt><trkpt lat="51.8269179761" lon="-2.1056246012"><ele>285.65</ele><time>2013-09-11T10:24:06Z</time></trkpt><trkpt lat="51.8269563653" lon="-2.1057470609"><ele>285.65</ele><time>2013-09-11T10:24:13Z</time></trkpt><trkpt lat="51.8269625679" lon="-2.1059457120"><ele>286.13</ele><time>2013-09-11T10:24:26Z</time></trkpt><trkpt lat="51.8269603886" lon="-2.1059742942"><ele>286.61</ele><time>2013-09-11T10:24:28Z</time></trkpt><trkpt lat="51.8269539345" lon="-2.1062309481"><ele>286.61</ele><time>2013-09-11T10:24:43Z</time></trkpt><trkpt lat="51.8269147072" lon="-2.1063156053"><ele>286.61</ele><time>2013-09-11T10:24:51Z</time></trkpt><trkpt lat="51.8267993722" lon="-2.1063531563"><ele>287.09</ele><time>2013-09-11T10:25:04Z</time></trkpt><trkpt lat="51.8266354222" lon="-2.1063813195"><ele>286.61</ele><time>2013-09-11T10:25:20Z</time></trkpt><trkpt lat="51.8265909981" lon="-2.1064017713"><ele>286.61</ele><time>2013-09-11T10:25:25Z</time></trkpt><trkpt lat="51.8264970370" lon="-2.1064059623"><ele>287.09</ele><time>2013-09-11T10:25:34Z</time></trkpt><trkpt lat="51.8264056742" lon="-2.1064130869"><ele>287.09</ele><time>2013-09-11T10:25:45Z</time></trkpt><trkpt lat="51.8262695521" lon="-2.1064684074"><ele>287.09</ele><time>2013-09-11T10:26:00Z</time></trkpt><trkpt lat="51.8261708971" lon="-2.1065554954"><ele>287.09</ele><time>2013-09-11T10:26:10Z</time></trkpt><trkpt lat="51.8260222860" lon="-2.1066636220"><ele>287.57</ele><time>2013-09-11T10:26:24Z</time></trkpt><trkpt lat="51.8259178475" lon="-2.1067212056"><ele>288.05</ele><time>2013-09-11T10:26:38Z</time></trkpt><trkpt lat="51.8257410731" lon="-2.1066920366"><ele>288.05</ele><time>2013-09-11T10:26:55Z</time></trkpt><trkpt lat="51.8256325275" lon="-2.1066054516"><ele>289.49</ele><time>2013-09-11T10:27:10Z</time></trkpt><trkpt lat="51.8256083876" lon="-2.1065798029"><ele>289.97</ele><time>2013-09-11T10:27:13Z</time></trkpt><trkpt lat="51.8254995905" lon="-2.1064747777"><ele>289.49</ele><time>2013-09-11T10:27:26Z</time></trkpt><trkpt lat="51.8253597803" lon="-2.1062643081"><ele>289.01</ele><time>2013-09-11T10:27:44Z</time></trkpt><trkpt lat="51.8252414279" lon="-2.1061008610"><ele>289.01</ele><time>2013-09-11T10:27:58Z</time></trkpt><trkpt lat="51.8252253346" lon="-2.1060693450"><ele>288.53</ele><time>2013-09-11T10:28:01Z</time></trkpt><trkpt lat="51.8250954989" lon="-2.1059768926"><ele>287.57</ele><time>2013-09-11T10:28:17Z</time></trkpt><trkpt lat="51.8250548467" lon="-2.1059570275"><ele>287.57</ele><time>2013-09-11T10:28:22Z</time></trkpt><trkpt lat="51.8249108456" lon="-2.1059133578"><ele>286.61</ele><time>2013-09-11T10:28:35Z</time></trkpt><trkpt lat="51.8247987796" lon="-2.1059063170"><ele>286.13</ele><time>2013-09-11T10:28:46Z</time></trkpt><trkpt lat="51.8246717099" lon="-2.1058531757"><ele>284.69</ele><time>2013-09-11T10:29:04Z</time></trkpt><trkpt lat="51.8245267030" lon="-2.1057571191"><ele>282.77</ele><time>2013-09-11T10:29:20Z</time></trkpt><trkpt lat="51.8244687002" lon="-2.1057344042"><ele>283.25</ele><time>2013-09-11T10:29:25Z</time></trkpt><trkpt lat="51.8243524432" lon="-2.1056712884"><ele>281.32</ele><time>2013-09-11T10:29:38Z</time></trkpt><trkpt lat="51.8243470788" lon="-2.1056696121"><ele>281.80</ele><time>2013-09-11T10:29:39Z</time></trkpt><trkpt lat="51.8242730666" lon="-2.1055863798"><ele>282.28</ele><time>2013-09-11T10:29:46Z</time></trkpt><trkpt lat="51.8240514491" lon="-2.1053887345"><ele>280.84</ele><time>2013-09-11T10:30:07Z</time></trkpt><trkpt lat="51.8239072803" lon="-2.1052308194"><ele>280.36</ele><time>2013-09-11T10:30:23Z</time></trkpt><trkpt lat="51.8237768579" lon="-2.1050482616"><ele>278.92</ele><time>2013-09-11T10:30:42Z</time></trkpt><trkpt lat="51.8236526381" lon="-2.1049242932"><ele>278.44</ele><time>2013-09-11T10:31:00Z</time></trkpt><trkpt lat="51.8235465232" lon="-2.1047455911"><ele>277.96</ele><time>2013-09-11T10:31:15Z</time></trkpt><trkpt lat="51.8234803062" lon="-2.1046113130"><ele>277.96</ele><time>2013-09-11T10:31:28Z</time></trkpt><trkpt lat="51.8233976606" lon="-2.1044722572"><ele>277.48</ele><time>2013-09-11T10:31:44Z</time></trkpt><trkpt lat="51.8233427592" lon="-2.1043651365"><ele>277.00</ele><time>2013-09-11T10:31:58Z</time></trkpt><trkpt lat="51.8232439365" lon="-2.1041710116"><ele>276.52</ele><time>2013-09-11T10:32:12Z</time></trkpt><trkpt lat="51.8232252449" lon="-2.1041601989"><ele>276.04</ele><time>2013-09-11T10:32:23Z</time></trkpt><trkpt lat="51.8231886160" lon="-2.1040975861"><ele>275.56</ele><time>2013-09-11T10:32:29Z</time></trkpt><trkpt lat="51.8231410906" lon="-2.1040312015"><ele>275.56</ele><time>2013-09-11T10:32:35Z</time></trkpt><trkpt lat="51.8230843451" lon="-2.1040107496"><ele>275.56</ele><time>2013-09-11T10:32:42Z</time></trkpt><trkpt lat="51.8229826726" lon="-2.1041974146"><ele>274.59</ele><time>2013-09-11T10:32:58Z</time></trkpt><trkpt lat="51.8229638133" lon="-2.1042456105"><ele>274.59</ele><time>2013-09-11T10:33:04Z</time></trkpt><trkpt lat="51.8229497317" lon="-2.1042778809"><ele>275.07</ele><time>2013-09-11T10:33:06Z</time></trkpt><trkpt lat="51.8228294514" lon="-2.1045055334"><ele>274.59</ele><time>2013-09-11T10:33:22Z</time></trkpt><trkpt lat="51.8227309640" lon="-2.1046730038"><ele>274.59</ele><time>2013-09-11T10:33:35Z</time></trkpt><trkpt lat="51.8226111867" lon="-2.1048681345"><ele>274.59</ele><time>2013-09-11T10:33:51Z</time></trkpt><trkpt lat="51.8225174770" lon="-2.1049911808"><ele>274.59</ele><time>2013-09-11T10:34:04Z</time></trkpt><trkpt lat="51.8224744778" lon="-2.1050515305"><ele>274.59</ele><time>2013-09-11T10:34:15Z</time></trkpt><trkpt lat="51.8224417884" lon="-2.1050806157"><ele>274.59</ele><time>2013-09-11T10:34:19Z</time></trkpt><trkpt lat="51.8223278783" lon="-2.1052314900"><ele>275.07</ele><time>2013-09-11T10:34:32Z</time></trkpt><trkpt lat="51.8222917523" lon="-2.1052648500"><ele>274.59</ele><time>2013-09-11T10:34:35Z</time></trkpt><trkpt lat="51.8221586477" lon="-2.1054904908"><ele>274.59</ele><time>2013-09-11T10:34:51Z</time></trkpt><trkpt lat="51.8220661953" lon="-2.1056455560"><ele>274.11</ele><time>2013-09-11T10:35:06Z</time></trkpt><trkpt lat="51.8220194243" lon="-2.1057561971"><ele>274.59</ele><time>2013-09-11T10:35:16Z</time></trkpt><trkpt lat="51.8219991401" lon="-2.1057867911"><ele>273.63</ele><time>2013-09-11T10:35:19Z</time></trkpt><trkpt lat="51.8219442386" lon="-2.1060094144"><ele>273.63</ele><time>2013-09-11T10:35:33Z</time></trkpt><trkpt lat="51.8218625989" lon="-2.1062795632"><ele>273.63</ele><time>2013-09-11T10:35:52Z</time></trkpt><trkpt lat="51.8218843080" lon="-2.1062564291"><ele>273.15</ele><time>2013-09-11T10:36:15Z</time></trkpt><trkpt lat="51.8218737468" lon="-2.1062750369"><ele>273.15</ele><time>2013-09-11T10:36:31Z</time></trkpt><trkpt lat="51.8218648620" lon="-2.1062903758"><ele>272.67</ele><time>2013-09-11T10:36:48Z</time></trkpt><trkpt lat="51.8218407221" lon="-2.1063174494"><ele>273.15</ele><time>2013-09-11T10:36:52Z</time></trkpt><trkpt lat="51.8216843158" lon="-2.1063940600"><ele>272.19</ele><time>2013-09-11T10:37:07Z</time></trkpt><trkpt lat="51.8216458429" lon="-2.1063829958"><ele>271.23</ele><time>2013-09-11T10:37:11Z</time></trkpt><trkpt lat="51.8215292506" lon="-2.1063915454"><ele>270.27</ele><time>2013-09-11T10:37:24Z</time></trkpt><trkpt lat="51.8215206172" lon="-2.1063905396"><ele>270.75</ele><time>2013-09-11T10:37:25Z</time></trkpt><trkpt lat="51.8214460183" lon="-2.1063796431"><ele>270.27</ele><time>2013-09-11T10:37:32Z</time></trkpt><trkpt lat="51.8213732634" lon="-2.1063902881"><ele>269.31</ele><time>2013-09-11T10:37:40Z</time></trkpt><trkpt lat="51.8212430086" lon="-2.1063684113"><ele>268.83</ele><time>2013-09-11T10:37:53Z</time></trkpt><trkpt lat="51.8211112451" lon="-2.1063408349"><ele>268.83</ele><time>2013-09-11T10:38:05Z</time></trkpt><trkpt lat="51.8209726922" lon="-2.1063139290"><ele>269.79</ele><time>2013-09-11T10:38:19Z</time></trkpt><trkpt lat="51.8208894599" lon="-2.1062902082"><ele>270.27</ele><time>2013-09-11T10:38:28Z</time></trkpt><trkpt lat="51.8208301999" lon="-2.1062881965"><ele>270.75</ele><time>2013-09-11T10:38:34Z</time></trkpt><trkpt lat="51.8207182176" lon="-2.1062667388"><ele>271.71</ele><time>2013-09-11T10:38:45Z</time></trkpt><trkpt lat="51.8206310458" lon="-2.1062438563"><ele>272.67</ele><time>2013-09-11T10:38:54Z</time></trkpt><trkpt lat="51.8204942532" lon="-2.1062234882"><ele>274.59</ele><time>2013-09-11T10:39:08Z</time></trkpt><trkpt lat="51.8204858713" lon="-2.1062224824"><ele>274.11</ele><time>2013-09-11T10:39:09Z</time></trkpt><trkpt lat="51.8204231746" lon="-2.1062174533"><ele>274.59</ele><time>2013-09-11T10:39:16Z</time></trkpt><trkpt lat="51.8202747311" lon="-2.1061913017"><ele>276.04</ele><time>2013-09-11T10:39:31Z</time></trkpt><trkpt lat="51.8202682771" lon="-2.1061896253"><ele>276.52</ele><time>2013-09-11T10:39:32Z</time></trkpt><trkpt lat="51.8202507589" lon="-2.1061796509"><ele>276.52</ele><time>2013-09-11T10:39:34Z</time></trkpt><trkpt lat="51.8202037364" lon="-2.1061573550"><ele>276.52</ele><time>2013-09-11T10:39:39Z</time></trkpt><trkpt lat="51.8201819435" lon="-2.1061519906"><ele>277.00</ele><time>2013-09-11T10:39:42Z</time></trkpt><trkpt lat="51.8201635033" lon="-2.1061497275"><ele>277.00</ele><time>2013-09-11T10:39:44Z</time></trkpt><trkpt lat="51.8201404531" lon="-2.1061491407"><ele>277.00</ele><time>2013-09-11T10:39:46Z</time></trkpt><trkpt lat="51.8201041594" lon="-2.1061457042"><ele>277.96</ele><time>2013-09-11T10:39:50Z</time></trkpt><trkpt lat="51.8200783432" lon="-2.1061437763"><ele>277.96</ele><time>2013-09-11T10:39:53Z</time></trkpt><trkpt lat="51.8200583942" lon="-2.1061503142"><ele>277.96</ele><time>2013-09-11T10:39:55Z</time></trkpt><trkpt lat="51.8200197536" lon="-2.1061491407"><ele>278.92</ele><time>2013-09-11T10:39:59Z</time></trkpt><trkpt lat="51.8199602421" lon="-2.1061336342"><ele>278.92</ele><time>2013-09-11T10:40:05Z</time></trkpt><trkpt lat="51.8198361062" lon="-2.1061204746"><ele>279.40</ele><time>2013-09-11T10:40:18Z</time></trkpt><trkpt lat="51.8198108766" lon="-2.1061219834"><ele>279.88</ele><time>2013-09-11T10:40:21Z</time></trkpt><trkpt lat="51.8196661212" lon="-2.1061047167"><ele>280.36</ele><time>2013-09-11T10:40:34Z</time></trkpt><trkpt lat="51.8196196016" lon="-2.1060897131"><ele>280.36</ele><time>2013-09-11T10:40:38Z</time></trkpt><trkpt lat="51.8195946235" lon="-2.1060898807"><ele>280.84</ele><time>2013-09-11T10:40:40Z</time></trkpt><trkpt lat="51.8194542266" lon="-2.1060659084"><ele>281.32</ele><time>2013-09-11T10:40:56Z</time></trkpt><trkpt lat="51.8194439169" lon="-2.1060645673"><ele>280.84</ele><time>2013-09-11T10:40:57Z</time></trkpt><trkpt lat="51.8193916138" lon="-2.1060523298"><ele>281.32</ele><time>2013-09-11T10:41:02Z</time></trkpt><trkpt lat="51.8192004226" lon="-2.1060392540"><ele>282.28</ele><time>2013-09-11T10:41:18Z</time></trkpt><trkpt lat="51.8190491293" lon="-2.1060173772"><ele>282.77</ele><time>2013-09-11T10:41:32Z</time></trkpt><trkpt lat="51.8189096544" lon="-2.1059911419"><ele>282.28</ele><time>2013-09-11T10:41:46Z</time></trkpt><trkpt lat="51.8187840935" lon="-2.1059839334"><ele>283.25</ele><time>2013-09-11T10:42:02Z</time></trkpt><trkpt lat="51.8187324610" lon="-2.1059571113"><ele>283.25</ele><time>2013-09-11T10:42:18Z</time></trkpt><trkpt lat="51.8185949139" lon="-2.1059447061"><ele>282.28</ele><time>2013-09-11T10:42:32Z</time></trkpt><trkpt lat="51.8184198160" lon="-2.1059075743"><ele>283.25</ele><time>2013-09-11T10:42:50Z</time></trkpt><trkpt lat="51.8183802534" lon="-2.1059090830"><ele>283.25</ele><time>2013-09-11T10:42:59Z</time></trkpt><trkpt lat="51.8183442112" lon="-2.1058014594"><ele>282.77</ele><time>2013-09-11T10:43:06Z</time></trkpt><trkpt lat="51.8183377571" lon="-2.1057038940"><ele>283.25</ele><time>2013-09-11T10:43:22Z</time></trkpt><trkpt lat="51.8183378410" lon="-2.1056505013"><ele>283.25</ele><time>2013-09-11T10:43:38Z</time></trkpt><trkpt lat="51.8183468934" lon="-2.1056209970"><ele>282.77</ele><time>2013-09-11T10:43:55Z</time></trkpt><trkpt lat="51.8183261901" lon="-2.1055575460"><ele>283.25</ele><time>2013-09-11T10:43:58Z</time></trkpt><trkpt lat="51.8182753120" lon="-2.1052985452"><ele>282.28</ele><time>2013-09-11T10:44:10Z</time></trkpt><trkpt lat="51.8182207458" lon="-2.1050242055"><ele>282.77</ele><time>2013-09-11T10:44:22Z</time></trkpt><trkpt lat="51.8182240985" lon="-2.1049849782"><ele>282.28</ele><time>2013-09-11T10:44:32Z</time></trkpt><trkpt lat="51.8181911577" lon="-2.1047993191"><ele>282.28</ele><time>2013-09-11T10:44:45Z</time></trkpt><trkpt lat="51.8181824405" lon="-2.1047669649"><ele>282.28</ele><time>2013-09-11T10:44:48Z</time></trkpt><trkpt lat="51.8181619048" lon="-2.1047287434"><ele>282.28</ele><time>2013-09-11T10:44:51Z</time></trkpt><trkpt lat="51.8181094341" lon="-2.1045214590"><ele>282.77</ele><time>2013-09-11T10:45:03Z</time></trkpt><trkpt lat="51.8180737272" lon="-2.1044211276"><ele>282.28</ele><time>2013-09-11T10:45:11Z</time></trkpt><trkpt lat="51.8180623278" lon="-2.1043818165"><ele>281.80</ele><time>2013-09-11T10:45:14Z</time></trkpt><trkpt lat="51.8180410378" lon="-2.1043067984"><ele>281.32</ele><time>2013-09-11T10:45:19Z</time></trkpt><trkpt lat="51.8179860525" lon="-2.1041276772"><ele>282.28</ele><time>2013-09-11T10:45:33Z</time></trkpt><trkpt lat="51.8179891538" lon="-2.1041148528"><ele>282.28</ele><time>2013-09-11T10:45:53Z</time></trkpt><trkpt lat="51.8179963622" lon="-2.1041064709"><ele>282.28</ele><time>2013-09-11T10:46:07Z</time></trkpt><trkpt lat="51.8179606553" lon="-2.1039484721"><ele>282.28</ele><time>2013-09-11T10:46:20Z</time></trkpt><trkpt lat="51.8179257866" lon="-2.1038892120"><ele>282.77</ele><time>2013-09-11T10:46:36Z</time></trkpt><trkpt lat="51.8179104477" lon="-2.1038322989"><ele>282.28</ele><time>2013-09-11T10:46:52Z</time></trkpt><trkpt lat="51.8179051671" lon="-2.1037349850"><ele>282.28</ele><time>2013-09-11T10:47:05Z</time></trkpt><trkpt lat="51.8178641796" lon="-2.1035820153"><ele>282.28</ele><time>2013-09-11T10:47:18Z</time></trkpt><trkpt lat="51.8178353459" lon="-2.1035013814"><ele>282.28</ele><time>2013-09-11T10:47:24Z</time></trkpt><trkpt lat="51.8177770078" lon="-2.1033037361"><ele>281.80</ele><time>2013-09-11T10:47:38Z</time></trkpt><trkpt lat="51.8177446537" lon="-2.1031785104"><ele>282.77</ele><time>2013-09-11T10:47:46Z</time></trkpt><trkpt lat="51.8177344278" lon="-2.1031487547"><ele>282.28</ele><time>2013-09-11T10:47:48Z</time></trkpt><trkpt lat="51.8176840525" lon="-2.1029563900"><ele>281.80</ele><time>2013-09-11T10:48:01Z</time></trkpt><trkpt lat="51.8176252116" lon="-2.1027206909"><ele>281.80</ele><time>2013-09-11T10:48:15Z</time></trkpt><trkpt lat="51.8175948691" lon="-2.1026108041"><ele>282.28</ele><time>2013-09-11T10:48:22Z</time></trkpt><trkpt lat="51.8175375368" lon="-2.1023673099"><ele>282.28</ele><time>2013-09-11T10:48:37Z</time></trkpt><trkpt lat="51.8174672127" lon="-2.1021317784"><ele>281.32</ele><time>2013-09-11T10:48:51Z</time></trkpt><trkpt lat="51.8174028397" lon="-2.1018874459"><ele>281.32</ele><time>2013-09-11T10:49:05Z</time></trkpt><trkpt lat="51.8173453398" lon="-2.1016577817"><ele>280.84</ele><time>2013-09-11T10:49:19Z</time></trkpt><trkpt lat="51.8172952160" lon="-2.1014473960"><ele>280.36</ele><time>2013-09-11T10:49:33Z</time></trkpt><trkpt lat="51.8172379676" lon="-2.1012355015"><ele>279.88</ele><time>2013-09-11T10:49:46Z</time></trkpt><trkpt lat="51.8172211200" lon="-2.1011536103"><ele>279.88</ele><time>2013-09-11T10:49:51Z</time></trkpt><trkpt lat="51.8172097206" lon="-2.1011095215"><ele>279.88</ele><time>2013-09-11T10:49:54Z</time></trkpt><trkpt lat="51.8171462696" lon="-2.1008335892"><ele>278.44</ele><time>2013-09-11T10:50:10Z</time></trkpt><trkpt lat="51.8171354569" lon="-2.1007774305"><ele>277.96</ele><time>2013-09-11T10:50:13Z</time></trkpt><trkpt lat="51.8171035219" lon="-2.1006044280"><ele>278.44</ele><time>2013-09-11T10:50:25Z</time></trkpt><trkpt lat="51.8170716707" lon="-2.1004685573"><ele>278.44</ele><time>2013-09-11T10:50:34Z</time></trkpt><trkpt lat="51.8170644622" lon="-2.1004144941"><ele>277.96</ele><time>2013-09-11T10:50:37Z</time></trkpt><trkpt lat="51.8170130812" lon="-2.1001663897"><ele>277.48</ele><time>2013-09-11T10:50:51Z</time></trkpt><trkpt lat="51.8169603590" lon="-2.0999191236"><ele>276.52</ele><time>2013-09-11T10:51:05Z</time></trkpt><trkpt lat="51.8169109896" lon="-2.0996672474"><ele>275.56</ele><time>2013-09-11T10:51:18Z</time></trkpt><trkpt lat="51.8168630451" lon="-2.0994084980"><ele>274.59</ele><time>2013-09-11T10:51:32Z</time></trkpt><trkpt lat="51.8168030307" lon="-2.0991221722"><ele>273.63</ele><time>2013-09-11T10:51:47Z</time></trkpt><trkpt lat="51.8167498056" lon="-2.0988669433"><ele>272.67</ele><time>2013-09-11T10:52:01Z</time></trkpt><trkpt lat="51.8167068902" lon="-2.0986350160"><ele>272.19</ele><time>2013-09-11T10:52:13Z</time></trkpt><trkpt lat="51.8166813254" lon="-2.0984416455"><ele>271.71</ele><time>2013-09-11T10:52:23Z</time></trkpt><trkpt lat="51.8166562635" lon="-2.0982442517"><ele>272.19</ele><time>2013-09-11T10:52:33Z</time></trkpt><trkpt lat="51.8166081514" lon="-2.0979896095"><ele>272.19</ele><time>2013-09-11T10:52:47Z</time></trkpt><trkpt lat="51.8165740371" lon="-2.0977591909"><ele>271.71</ele><time>2013-09-11T10:52:59Z</time></trkpt><trkpt lat="51.8165353965" lon="-2.0975393336"><ele>271.23</ele><time>2013-09-11T10:53:12Z</time></trkpt><trkpt lat="51.8165029585" lon="-2.0973157045"><ele>271.71</ele><time>2013-09-11T10:53:24Z</time></trkpt><trkpt lat="51.8164795730" lon="-2.0971827675"><ele>271.23</ele><time>2013-09-11T10:53:32Z</time></trkpt><trkpt lat="51.8164664973" lon="-2.0971372537"><ele>271.23</ele><time>2013-09-11T10:53:35Z</time></trkpt><trkpt lat="51.8164273538" lon="-2.0969416201"><ele>270.27</ele><time>2013-09-11T10:53:49Z</time></trkpt><trkpt lat="51.8164128531" lon="-2.0968256984"><ele>270.75</ele><time>2013-09-11T10:54:02Z</time></trkpt><trkpt lat="51.8164119311" lon="-2.0968243573"><ele>270.75</ele><time>2013-09-11T10:54:06Z</time></trkpt><trkpt lat="51.8163951673" lon="-2.0966910012"><ele>270.27</ele><time>2013-09-11T10:54:19Z</time></trkpt><trkpt lat="51.8163940776" lon="-2.0966697112"><ele>270.27</ele><time>2013-09-11T10:54:34Z</time></trkpt><trkpt lat="51.8163520843" lon="-2.0966556296"><ele>270.27</ele><time>2013-09-11T10:54:50Z</time></trkpt><trkpt lat="51.8163390923" lon="-2.0966309030"><ele>269.31</ele><time>2013-09-11T10:55:00Z</time></trkpt><trkpt lat="51.8163001165" lon="-2.0965874847"><ele>269.31</ele><time>2013-09-11T10:55:05Z</time></trkpt><trkpt lat="51.8162718695" lon="-2.0965475030"><ele>269.31</ele><time>2013-09-11T10:55:09Z</time></trkpt><trkpt lat="51.8161333166" lon="-2.0964623429"><ele>268.83</ele><time>2013-09-11T10:55:23Z</time></trkpt><trkpt lat="51.8160064146" lon="-2.0963981375"><ele>267.86</ele><time>2013-09-11T10:55:35Z</time></trkpt><trkpt lat="51.8159654271" lon="-2.0963784400"><ele>267.38</ele><time>2013-09-11T10:55:39Z</time></trkpt><trkpt lat="51.8159438018" lon="-2.0963653643"><ele>267.38</ele><time>2013-09-11T10:55:41Z</time></trkpt><trkpt lat="51.8159137107" lon="-2.0963616762"><ele>267.38</ele><time>2013-09-11T10:55:44Z</time></trkpt><trkpt lat="51.8157904968" lon="-2.0963106304"><ele>267.38</ele><time>2013-09-11T10:55:58Z</time></trkpt><trkpt lat="51.8157621659" lon="-2.0962870773"><ele>266.90</ele><time>2013-09-11T10:56:01Z</time></trkpt><trkpt lat="51.8157008104" lon="-2.0962499455"><ele>267.38</ele><time>2013-09-11T10:56:07Z</time></trkpt><trkpt lat="51.8155090325" lon="-2.0961580798"><ele>267.86</ele><time>2013-09-11T10:56:22Z</time></trkpt><trkpt lat="51.8153741676" lon="-2.0960854087"><ele>268.35</ele><time>2013-09-11T10:56:34Z</time></trkpt><trkpt lat="51.8152827211" lon="-2.0960434992"><ele>268.35</ele><time>2013-09-11T10:56:44Z</time></trkpt><trkpt lat="51.8151859101" lon="-2.0960175153"><ele>269.79</ele><time>2013-09-11T10:56:52Z</time></trkpt><trkpt lat="51.8150293361" lon="-2.0959751029"><ele>270.75</ele><time>2013-09-11T10:57:06Z</time></trkpt><trkpt lat="51.8149104808" lon="-2.0959781203"><ele>272.19</ele><time>2013-09-11T10:57:18Z</time></trkpt><trkpt lat="51.8148279190" lon="-2.0959871728"><ele>273.15</ele><time>2013-09-11T10:57:26Z</time></trkpt><trkpt lat="51.8147036992" lon="-2.0959804673"><ele>273.15</ele><time>2013-09-11T10:57:39Z</time></trkpt><trkpt lat="51.8146359734" lon="-2.0959924534"><ele>274.59</ele><time>2013-09-11T10:57:53Z</time></trkpt><trkpt lat="51.8145736121" lon="-2.0959863346"><ele>275.07</ele><time>2013-09-11T10:57:58Z</time></trkpt><trkpt lat="51.8143869471" lon="-2.0959413238"><ele>276.04</ele><time>2013-09-11T10:58:11Z</time></trkpt><trkpt lat="51.8142130226" lon="-2.0958476979"><ele>275.07</ele><time>2013-09-11T10:58:24Z</time></trkpt><trkpt lat="51.8141290359" lon="-2.0957968198"><ele>275.07</ele><time>2013-09-11T10:58:32Z</time></trkpt><trkpt lat="51.8139924109" lon="-2.0956892800"><ele>274.59</ele><time>2013-09-11T10:58:44Z</time></trkpt><trkpt lat="51.8139597215" lon="-2.0956603624"><ele>274.59</ele><time>2013-09-11T10:58:47Z</time></trkpt><trkpt lat="51.8138297182" lon="-2.0955241565"><ele>274.59</ele><time>2013-09-11T10:59:01Z</time></trkpt><trkpt lat="51.8137236033" lon="-2.0953762997"><ele>272.67</ele><time>2013-09-11T10:59:13Z</time></trkpt><trkpt lat="51.8136239424" lon="-2.0952356514"><ele>272.67</ele><time>2013-09-11T10:59:25Z</time></trkpt><trkpt lat="51.8134947773" lon="-2.0950957574"><ele>272.19</ele><time>2013-09-11T10:59:38Z</time></trkpt><trkpt lat="51.8133738264" lon="-2.0949638262"><ele>271.23</ele><time>2013-09-11T10:59:51Z</time></trkpt><trkpt lat="51.8132776860" lon="-2.0948087610"><ele>271.23</ele><time>2013-09-11T11:00:03Z</time></trkpt><trkpt lat="51.8132227845" lon="-2.0947073400"><ele>270.75</ele><time>2013-09-11T11:00:11Z</time></trkpt><trkpt lat="51.8131884187" lon="-2.0946119539"><ele>270.75</ele><time>2013-09-11T11:00:18Z</time></trkpt><trkpt lat="51.8132019136" lon="-2.0944427233"><ele>269.31</ele><time>2013-09-11T11:00:26Z</time></trkpt><trkpt lat="51.8132538814" lon="-2.0942112152"><ele>268.83</ele><time>2013-09-11T11:00:41Z</time></trkpt><trkpt lat="51.8133004010" lon="-2.0939728338"><ele>267.86</ele><time>2013-09-11T11:00:56Z</time></trkpt><trkpt lat="51.8133294862" lon="-2.0937057026"><ele>266.90</ele><time>2013-09-11T11:01:10Z</time></trkpt><trkpt lat="51.8133346830" lon="-2.0934984181"><ele>266.90</ele><time>2013-09-11T11:01:21Z</time></trkpt><trkpt lat="51.8133342639" lon="-2.0932722744"><ele>265.94</ele><time>2013-09-11T11:01:35Z</time></trkpt><trkpt lat="51.8133361079" lon="-2.0931943227"><ele>265.94</ele><time>2013-09-11T11:01:40Z</time></trkpt><trkpt lat="51.8133413047" lon="-2.0931355655"><ele>265.46</ele><time>2013-09-11T11:01:44Z</time></trkpt><trkpt lat="51.8133455794" lon="-2.0930866152"><ele>264.98</ele><time>2013-09-11T11:01:47Z</time></trkpt><trkpt lat="51.8133201823" lon="-2.0929287001"><ele>265.46</ele><time>2013-09-11T11:01:57Z</time></trkpt><trkpt lat="51.8133189250" lon="-2.0927363355"><ele>264.50</ele><time>2013-09-11T11:02:07Z</time></trkpt><trkpt lat="51.8133303244" lon="-2.0925643388"><ele>264.02</ele><time>2013-09-11T11:02:17Z</time></trkpt><trkpt lat="51.8133434001" lon="-2.0923070144"><ele>264.02</ele><time>2013-09-11T11:02:34Z</time></trkpt><trkpt lat="51.8133592419" lon="-2.0920703933"><ele>263.54</ele><time>2013-09-11T11:02:48Z</time></trkpt><trkpt lat="51.8133723177" lon="-2.0917919464"><ele>263.06</ele><time>2013-09-11T11:03:04Z</time></trkpt><trkpt lat="51.8134023249" lon="-2.0915615279"><ele>261.62</ele><time>2013-09-11T11:03:19Z</time></trkpt><trkpt lat="51.8134169094" lon="-2.0912940614"><ele>260.65</ele><time>2013-09-11T11:03:34Z</time></trkpt><trkpt lat="51.8134294823" lon="-2.0910469629"><ele>261.14</ele><time>2013-09-11T11:03:48Z</time></trkpt><trkpt lat="51.8134330027" lon="-2.0909214858"><ele>261.14</ele><time>2013-09-11T11:03:56Z</time></trkpt><trkpt lat="51.8134329189" lon="-2.0906511694"><ele>260.17</ele><time>2013-09-11T11:04:12Z</time></trkpt><trkpt lat="51.8134325836" lon="-2.0906194858"><ele>260.17</ele><time>2013-09-11T11:04:14Z</time></trkpt><trkpt lat="51.8134597410" lon="-2.0903864689"><ele>258.73</ele><time>2013-09-11T11:04:28Z</time></trkpt><trkpt lat="51.8134296499" lon="-2.0903059188"><ele>258.73</ele><time>2013-09-11T11:04:35Z</time></trkpt><trkpt lat="51.8132604193" lon="-2.0901907515"><ele>257.77</ele><time>2013-09-11T11:04:49Z</time></trkpt><trkpt lat="51.8132247962" lon="-2.0901727304"><ele>257.77</ele><time>2013-09-11T11:04:52Z</time></trkpt><trkpt lat="51.8131957110" lon="-2.0901614986"><ele>258.73</ele><time>2013-09-11T11:05:08Z</time></trkpt><trkpt lat="51.8132068589" lon="-2.0901616663"><ele>258.25</ele><time>2013-09-11T11:05:41Z</time></trkpt><trkpt lat="51.8132098764" lon="-2.0901619177"><ele>257.77</ele><time>2013-09-11T11:05:53Z</time></trkpt><trkpt lat="51.8132132292" lon="-2.0901469141"><ele>256.81</ele><time>2013-09-11T11:05:55Z</time></trkpt><trkpt lat="51.8132153247" lon="-2.0899714809"><ele>256.33</ele><time>2013-09-11T11:06:04Z</time></trkpt><trkpt lat="51.8132188451" lon="-2.0899170823"><ele>256.81</ele><time>2013-09-11T11:06:07Z</time></trkpt><trkpt lat="51.8132327590" lon="-2.0897491090"><ele>255.85</ele><time>2013-09-11T11:06:17Z</time></trkpt><trkpt lat="51.8131982256" lon="-2.0894860849"><ele>254.41</ele><time>2013-09-11T11:06:32Z</time></trkpt><trkpt lat="51.8131802883" lon="-2.0894276630"><ele>255.37</ele><time>2013-09-11T11:06:35Z</time></trkpt><trkpt lat="51.8131372891" lon="-2.0894113183"><ele>254.89</ele><time>2013-09-11T11:06:41Z</time></trkpt><trkpt lat="51.8131114729" lon="-2.0893628709"><ele>254.41</ele><time>2013-09-11T11:06:59Z</time></trkpt><trkpt lat="51.8130614329" lon="-2.0893972367"><ele>254.41</ele><time>2013-09-11T11:07:23Z</time></trkpt><trkpt lat="51.8130662944" lon="-2.0893722586"><ele>246.23</ele><time>2013-09-11T11:07:36Z</time></trkpt><trkpt lat="51.8130662106" lon="-2.0893720910"><ele>257.29</ele><time>2013-09-11T11:07:37Z</time></trkpt><trkpt lat="51.8130661268" lon="-2.0893719234"><ele>251.52</ele><time>2013-09-11T11:07:39Z</time></trkpt><trkpt lat="51.8130651210" lon="-2.0893749408"><ele>255.85</ele><time>2013-09-11T11:07:40Z</time></trkpt><trkpt lat="51.8130664621" lon="-2.0893710013"><ele>244.79</ele><time>2013-09-11T11:07:45Z</time></trkpt><trkpt lat="51.8130665459" lon="-2.0893710013"><ele>254.41</ele><time>2013-09-11T11:07:46Z</time></trkpt><trkpt lat="51.8130623549" lon="-2.0893684030"><ele>254.89</ele><time>2013-09-11T11:07:47Z</time></trkpt><trkpt lat="51.8131262250" lon="-2.0892877690"><ele>254.41</ele><time>2013-09-11T11:08:14Z</time></trkpt><trkpt lat="51.8131933641" lon="-2.0891919639"><ele>253.93</ele><time>2013-09-11T11:08:27Z</time></trkpt><trkpt lat="51.8132033385" lon="-2.0891801454"><ele>253.93</ele><time>2013-09-11T11:08:28Z</time></trkpt><trkpt lat="51.8132498581" lon="-2.0891440194"><ele>254.41</ele><time>2013-09-11T11:08:45Z</time></trkpt><trkpt lat="51.8132810388" lon="-2.0890270919"><ele>254.89</ele><time>2013-09-11T11:09:00Z</time></trkpt><trkpt lat="51.8134050909" lon="-2.0888351463"><ele>255.85</ele><time>2013-09-11T11:09:14Z</time></trkpt><trkpt lat="51.8135336693" lon="-2.0886501577"><ele>256.81</ele><time>2013-09-11T11:09:29Z</time></trkpt><trkpt lat="51.8135816138" lon="-2.0885661710"><ele>257.29</ele><time>2013-09-11T11:09:35Z</time></trkpt><trkpt lat="51.8136056699" lon="-2.0885056537"><ele>257.29</ele><time>2013-09-11T11:09:39Z</time></trkpt><trkpt lat="51.8137626629" lon="-2.0882899873"><ele>257.29</ele><time>2013-09-11T11:09:53Z</time></trkpt><trkpt lat="51.8138269521" lon="-2.0881407056"><ele>258.25</ele><time>2013-09-11T11:10:02Z</time></trkpt><trkpt lat="51.8138502538" lon="-2.0880547911"><ele>258.25</ele><time>2013-09-11T11:10:07Z</time></trkpt><trkpt lat="51.8139081728" lon="-2.0878579840"><ele>259.21</ele><time>2013-09-11T11:10:19Z</time></trkpt><trkpt lat="51.8139240146" lon="-2.0877845585"><ele>258.73</ele><time>2013-09-11T11:10:24Z</time></trkpt><trkpt lat="51.8139251880" lon="-2.0875714906"><ele>259.21</ele><time>2013-09-11T11:10:41Z</time></trkpt><trkpt lat="51.8139261939" lon="-2.0875706524"><ele>258.73</ele><time>2013-09-11T11:11:04Z</time></trkpt><trkpt lat="51.8139454722" lon="-2.0874360390"><ele>257.77</ele><time>2013-09-11T11:11:33Z</time></trkpt><trkpt lat="51.8139704503" lon="-2.0872132480"><ele>257.77</ele><time>2013-09-11T11:11:46Z</time></trkpt><trkpt lat="51.8139831908" lon="-2.0870890282"><ele>257.29</ele><time>2013-09-11T11:11:53Z</time></trkpt><trkpt lat="51.8139922433" lon="-2.0868354756"><ele>258.73</ele><time>2013-09-11T11:12:08Z</time></trkpt><trkpt lat="51.8140219990" lon="-2.0866840146"><ele>258.25</ele><time>2013-09-11T11:12:22Z</time></trkpt><trkpt lat="51.8139721267" lon="-2.0866406802"><ele>258.25</ele><time>2013-09-11T11:12:38Z</time></trkpt><trkpt lat="51.8139799219" lon="-2.0866202284"><ele>257.77</ele><time>2013-09-11T11:12:54Z</time></trkpt><trkpt lat="51.8140204065" lon="-2.0865152031"><ele>258.73</ele><time>2013-09-11T11:13:07Z</time></trkpt><trkpt lat="51.8140065763" lon="-2.0863731299"><ele>258.73</ele><time>2013-09-11T11:13:23Z</time></trkpt><trkpt lat="51.8140005413" lon="-2.0861638337"><ele>259.21</ele><time>2013-09-11T11:13:37Z</time></trkpt><trkpt lat="51.8139709532" lon="-2.0859011449"><ele>259.69</ele><time>2013-09-11T11:13:52Z</time></trkpt><trkpt lat="51.8139471486" lon="-2.0857598260"><ele>260.65</ele><time>2013-09-11T11:14:03Z</time></trkpt><trkpt lat="51.8139240984" lon="-2.0856987219"><ele>260.17</ele><time>2013-09-11T11:14:17Z</time></trkpt><trkpt lat="51.8139499146" lon="-2.0856239554"><ele>259.69</ele><time>2013-09-11T11:14:37Z</time></trkpt><trkpt lat="51.8139619846" lon="-2.0855669584"><ele>260.17</ele><time>2013-09-11T11:14:49Z</time></trkpt><trkpt lat="51.8139867112" lon="-2.0855557267"><ele>260.17</ele><time>2013-09-11T11:15:10Z</time></trkpt><trkpt lat="51.8139950931" lon="-2.0855416451"><ele>260.17</ele><time>2013-09-11T11:15:30Z</time></trkpt><trkpt lat="51.8140019663" lon="-2.0855335984"><ele>259.69</ele><time>2013-09-11T11:15:46Z</time></trkpt><trkpt lat="51.8140459713" lon="-2.0855010767"><ele>260.17</ele><time>2013-09-11T11:16:06Z</time></trkpt><trkpt lat="51.8140587956" lon="-2.0856004022"><ele>260.17</ele><time>2013-09-11T11:16:23Z</time></trkpt><trkpt lat="51.8140837736" lon="-2.0853089634"><ele>260.17</ele><time>2013-09-11T11:17:07Z</time></trkpt></trkseg><trkseg><trkpt lat="51.8140720390" lon="-2.0854448341"><ele>260.65</ele><time>2013-09-11T11:18:10Z</time></trkpt><trkpt lat="51.8140686862" lon="-2.0854818821"><ele>260.17</ele><time>2013-09-11T11:18:31Z</time></trkpt><trkpt lat="51.8140699435" lon="-2.0854287408"><ele>260.17</ele><time>2013-09-11T11:18:52Z</time></trkpt><trkpt lat="51.8139556982" lon="-2.0855168346"><ele>260.17</ele><time>2013-09-11T11:19:13Z</time></trkpt><trkpt lat="51.8139730487" lon="-2.0855089556"><ele>259.69</ele><time>2013-09-11T11:19:32Z</time></trkpt><trkpt lat="51.8138791714" lon="-2.0854910184"><ele>258.73</ele><time>2013-09-11T11:19:45Z</time></trkpt><trkpt lat="51.8137737270" lon="-2.0854167547"><ele>257.77</ele><time>2013-09-11T11:19:59Z</time></trkpt><trkpt lat="51.8137581367" lon="-2.0854094625"><ele>258.25</ele><time>2013-09-11T11:20:23Z</time></trkpt><trkpt lat="51.8137571309" lon="-2.0854055230"><ele>258.73</ele><time>2013-09-11T11:20:53Z</time></trkpt><trkpt lat="51.8137749843" lon="-2.0854185149"><ele>258.25</ele><time>2013-09-11T11:20:56Z</time></trkpt><trkpt lat="51.8138087634" lon="-2.0854600891"><ele>258.25</ele><time>2013-09-11T11:21:00Z</time></trkpt><trkpt lat="51.8139298819" lon="-2.0855725743"><ele>259.69</ele><time>2013-09-11T11:21:13Z</time></trkpt><trkpt lat="51.8139664270" lon="-2.0856575668"><ele>260.65</ele><time>2013-09-11T11:21:20Z</time></trkpt><trkpt lat="51.8139478192" lon="-2.0857767574"><ele>260.65</ele><time>2013-09-11T11:21:35Z</time></trkpt><trkpt lat="51.8139532674" lon="-2.0857972093"><ele>260.17</ele><time>2013-09-11T11:21:37Z</time></trkpt><trkpt lat="51.8139769882" lon="-2.0859600697"><ele>260.17</ele><time>2013-09-11T11:21:50Z</time></trkpt><trkpt lat="51.8139847834" lon="-2.0861722156"><ele>260.17</ele><time>2013-09-11T11:22:01Z</time></trkpt><trkpt lat="51.8139809277" lon="-2.0863611437"><ele>260.17</ele><time>2013-09-11T11:22:12Z</time></trkpt><trkpt lat="51.8139856216" lon="-2.0863679331"><ele>259.69</ele><time>2013-09-11T11:22:13Z</time></trkpt><trkpt lat="51.8140139524" lon="-2.0866114274"><ele>259.21</ele><time>2013-09-11T11:22:28Z</time></trkpt><trkpt lat="51.8140320573" lon="-2.0867660735"><ele>259.21</ele><time>2013-09-11T11:22:39Z</time></trkpt><trkpt lat="51.8140390143" lon="-2.0867707673"><ele>259.69</ele><time>2013-09-11T11:22:40Z</time></trkpt><trkpt lat="51.8140837736" lon="-2.0867462922"><ele>259.69</ele><time>2013-09-11T11:22:45Z</time></trkpt><trkpt lat="51.8141116016" lon="-2.0867621340"><ele>260.17</ele><time>2013-09-11T11:22:48Z</time></trkpt><trkpt lat="51.8142575305" lon="-2.0867430232"><ele>260.65</ele><time>2013-09-11T11:23:03Z</time></trkpt><trkpt lat="51.8144089077" lon="-2.0867965836"><ele>261.14</ele><time>2013-09-11T11:23:19Z</time></trkpt><trkpt lat="51.8145325407" lon="-2.0868408401"><ele>262.10</ele><time>2013-09-11T11:23:33Z</time></trkpt><trkpt lat="51.8145504780" lon="-2.0868511498"><ele>263.06</ele><time>2013-09-11T11:23:49Z</time></trkpt><trkpt lat="51.8145639729" lon="-2.0868555084"><ele>263.06</ele><time>2013-09-11T11:24:04Z</time></trkpt><trkpt lat="51.8145969976" lon="-2.0868655667"><ele>263.54</ele><time>2013-09-11T11:24:17Z</time></trkpt><trkpt lat="51.8146853428" lon="-2.0868037920"><ele>262.10</ele><time>2013-09-11T11:24:26Z</time></trkpt><trkpt lat="51.8148053717" lon="-2.0866801590"><ele>262.10</ele><time>2013-09-11T11:24:40Z</time></trkpt><trkpt lat="51.8149476964" lon="-2.0865291171"><ele>260.65</ele><time>2013-09-11T11:24:56Z</time></trkpt><trkpt lat="51.8150666356" lon="-2.0864071604"><ele>260.65</ele><time>2013-09-11T11:25:09Z</time></trkpt><trkpt lat="51.8151714932" lon="-2.0862738043"><ele>259.69</ele><time>2013-09-11T11:25:22Z</time></trkpt><trkpt lat="51.8151879217" lon="-2.0862569567"><ele>258.73</ele><time>2013-09-11T11:25:24Z</time></trkpt><trkpt lat="51.8152227905" lon="-2.0862287097"><ele>258.73</ele><time>2013-09-11T11:25:28Z</time></trkpt><trkpt lat="51.8153214455" lon="-2.0861186553"><ele>257.29</ele><time>2013-09-11T11:25:39Z</time></trkpt><trkpt lat="51.8154664524" lon="-2.0859961119"><ele>255.85</ele><time>2013-09-11T11:25:53Z</time></trkpt><trkpt lat="51.8155833799" lon="-2.0858769212"><ele>253.44</ele><time>2013-09-11T11:26:06Z</time></trkpt><trkpt lat="51.8156080227" lon="-2.0858679526"><ele>253.44</ele><time>2013-09-11T11:26:09Z</time></trkpt><trkpt lat="51.8157070130" lon="-2.0859251171"><ele>252.48</ele><time>2013-09-11T11:26:21Z</time></trkpt><trkpt lat="51.8157090247" lon="-2.0858970378"><ele>252.48</ele><time>2013-09-11T11:26:23Z</time></trkpt><trkpt lat="51.8157615792" lon="-2.0857703872"><ele>251.52</ele><time>2013-09-11T11:26:30Z</time></trkpt><trkpt lat="51.8159011379" lon="-2.0856315829"><ele>250.56</ele><time>2013-09-11T11:26:42Z</time></trkpt><trkpt lat="51.8159428798" lon="-2.0855947863"><ele>250.56</ele><time>2013-09-11T11:26:46Z</time></trkpt><trkpt lat="51.8160195742" lon="-2.0854825526"><ele>250.08</ele><time>2013-09-11T11:26:56Z</time></trkpt><trkpt lat="51.8160836957" lon="-2.0853775274"><ele>250.08</ele><time>2013-09-11T11:27:05Z</time></trkpt><trkpt lat="51.8161295447" lon="-2.0853821374"><ele>251.52</ele><time>2013-09-11T11:27:23Z</time></trkpt><trkpt lat="51.8161462247" lon="-2.0853778627"><ele>251.52</ele><time>2013-09-11T11:27:36Z</time></trkpt><trkpt lat="51.8161530979" lon="-2.0853798743"><ele>251.04</ele><time>2013-09-11T11:27:54Z</time></trkpt><trkpt lat="51.8161908165" lon="-2.0853478555"><ele>251.04</ele><time>2013-09-11T11:28:14Z</time></trkpt><trkpt lat="51.8163459655" lon="-2.0851876773"><ele>249.60</ele><time>2013-09-11T11:28:30Z</time></trkpt><trkpt lat="51.8164507393" lon="-2.0851227175"><ele>248.64</ele><time>2013-09-11T11:28:39Z</time></trkpt><trkpt lat="51.8164918106" lon="-2.0851123240"><ele>248.16</ele><time>2013-09-11T11:28:42Z</time></trkpt><trkpt lat="51.8166348897" lon="-2.0851135813"><ele>246.72</ele><time>2013-09-11T11:28:55Z</time></trkpt><trkpt lat="51.8168004323" lon="-2.0851156767"><ele>244.31</ele><time>2013-09-11T11:29:12Z</time></trkpt><trkpt lat="51.8169048708" lon="-2.0850808918"><ele>242.39</ele><time>2013-09-11T11:29:26Z</time></trkpt><trkpt lat="51.8169707526" lon="-2.0850512199"><ele>241.91</ele><time>2013-09-11T11:29:39Z</time></trkpt><trkpt lat="51.8170267437" lon="-2.0850662235"><ele>241.43</ele><time>2013-09-11T11:29:59Z</time></trkpt><trkpt lat="51.8170659710" lon="-2.0850816462"><ele>239.51</ele><time>2013-09-11T11:30:17Z</time></trkpt><trkpt lat="51.8171668053" lon="-2.0850749407"><ele>238.54</ele><time>2013-09-11T11:30:30Z</time></trkpt><trkpt lat="51.8172231317" lon="-2.0850813109"><ele>237.10</ele><time>2013-09-11T11:30:46Z</time></trkpt><trkpt lat="51.8172834814" lon="-2.0850690734"><ele>236.62</ele><time>2013-09-11T11:31:00Z</time></trkpt><trkpt lat="51.8172961380" lon="-2.0850638766"><ele>235.66</ele><time>2013-09-11T11:31:23Z</time></trkpt><trkpt lat="51.8173307553" lon="-2.0850348752"><ele>234.22</ele><time>2013-09-11T11:31:39Z</time></trkpt><trkpt lat="51.8173565716" lon="-2.0850684866"><ele>233.74</ele><time>2013-09-11T11:31:55Z</time></trkpt><trkpt lat="51.8173904344" lon="-2.0851134136"><ele>231.33</ele><time>2013-09-11T11:32:14Z</time></trkpt><trkpt lat="51.8174483534" lon="-2.0851872582"><ele>229.89</ele><time>2013-09-11T11:32:33Z</time></trkpt><trkpt lat="51.8175197672" lon="-2.0852126554"><ele>228.45</ele><time>2013-09-11T11:32:47Z</time></trkpt><trkpt lat="51.8175609224" lon="-2.0852070395"><ele>227.49</ele><time>2013-09-11T11:32:58Z</time></trkpt><trkpt lat="51.8176049273" lon="-2.0851720870"><ele>226.53</ele><time>2013-09-11T11:33:08Z</time></trkpt><trkpt lat="51.8176399637" lon="-2.0851661358"><ele>226.53</ele><time>2013-09-11T11:33:22Z</time></trkpt><trkpt lat="51.8178190012" lon="-2.0851732604"><ele>225.57</ele><time>2013-09-11T11:33:37Z</time></trkpt><trkpt lat="51.8179516029" lon="-2.0851021819"><ele>226.05</ele><time>2013-09-11T11:33:54Z</time></trkpt><trkpt lat="51.8180563767" lon="-2.0850077178"><ele>227.49</ele><time>2013-09-11T11:34:06Z</time></trkpt><trkpt lat="51.8181795068" lon="-2.0849558339"><ele>228.93</ele><time>2013-09-11T11:34:21Z</time></trkpt><trkpt lat="51.8182486575" lon="-2.0849155169"><ele>230.37</ele><time>2013-09-11T11:34:33Z</time></trkpt><trkpt lat="51.8183190655" lon="-2.0848829113"><ele>231.33</ele><time>2013-09-11T11:34:46Z</time></trkpt><trkpt lat="51.8183348235" lon="-2.0848684944"><ele>231.81</ele><time>2013-09-11T11:34:48Z</time></trkpt><trkpt lat="51.8184499070" lon="-2.0848194603"><ele>232.30</ele><time>2013-09-11T11:35:01Z</time></trkpt><trkpt lat="51.8184991926" lon="-2.0848104917"><ele>232.78</ele><time>2013-09-11T11:35:07Z</time></trkpt><trkpt lat="51.8185565248" lon="-2.0847911295"><ele>233.74</ele><time>2013-09-11T11:35:14Z</time></trkpt><trkpt lat="51.8186096661" lon="-2.0847943984"><ele>234.22</ele><time>2013-09-11T11:35:29Z</time></trkpt><trkpt lat="51.8186796550" lon="-2.0847659837"><ele>234.70</ele><time>2013-09-11T11:35:36Z</time></trkpt><trkpt lat="51.8187428545" lon="-2.0847436041"><ele>235.66</ele><time>2013-09-11T11:35:47Z</time></trkpt><trkpt lat="51.8188413419" lon="-2.0847378206"><ele>238.06</ele><time>2013-09-11T11:35:55Z</time></trkpt><trkpt lat="51.8188769650" lon="-2.0847447775"><ele>238.54</ele><time>2013-09-11T11:36:11Z</time></trkpt><trkpt lat="51.8189080618" lon="-2.0847384911"><ele>238.06</ele><time>2013-09-11T11:36:22Z</time></trkpt><trkpt lat="51.8189495523" lon="-2.0847273432"><ele>239.02</ele><time>2013-09-11T11:36:26Z</time></trkpt><trkpt lat="51.8190654740" lon="-2.0846316218"><ele>239.51</ele><time>2013-09-11T11:36:38Z</time></trkpt><trkpt lat="51.8191826530" lon="-2.0845539216"><ele>241.43</ele><time>2013-09-11T11:36:51Z</time></trkpt><trkpt lat="51.8192911986" lon="-2.0845167059"><ele>242.87</ele><time>2013-09-11T11:37:02Z</time></trkpt><trkpt lat="51.8193433341" lon="-2.0845108386"><ele>242.87</ele><time>2013-09-11T11:37:07Z</time></trkpt><trkpt lat="51.8194792885" lon="-2.0845082402"><ele>244.31</ele><time>2013-09-11T11:37:19Z</time></trkpt><trkpt lat="51.8195493612" lon="-2.0845029596"><ele>243.83</ele><time>2013-09-11T11:37:25Z</time></trkpt><trkpt lat="51.8196797837" lon="-2.0844860282"><ele>243.83</ele><time>2013-09-11T11:37:37Z</time></trkpt><trkpt lat="51.8197470903" lon="-2.0844747126"><ele>243.83</ele><time>2013-09-11T11:37:43Z</time></trkpt><trkpt lat="51.8197938614" lon="-2.0844792388"><ele>243.83</ele><time>2013-09-11T11:37:47Z</time></trkpt><trkpt lat="51.8198543787" lon="-2.0844723657"><ele>245.27</ele><time>2013-09-11T11:37:53Z</time></trkpt><trkpt lat="51.8199615832" lon="-2.0844403468"><ele>245.75</ele><time>2013-09-11T11:38:05Z</time></trkpt><trkpt lat="51.8199815322" lon="-2.0844742097"><ele>245.75</ele><time>2013-09-11T11:38:27Z</time></trkpt><trkpt lat="51.8199919257" lon="-2.0844689291"><ele>245.75</ele><time>2013-09-11T11:38:53Z</time></trkpt><trkpt lat="51.8200022355" lon="-2.0844659116"><ele>245.75</ele><time>2013-09-11T11:39:16Z</time></trkpt><trkpt lat="51.8200209271" lon="-2.0844572783"><ele>245.75</ele><time>2013-09-11T11:39:18Z</time></trkpt><trkpt lat="51.8200436421" lon="-2.0844308753"><ele>246.72</ele><time>2013-09-11T11:39:21Z</time></trkpt><trkpt lat="51.8200622499" lon="-2.0844115969"><ele>246.72</ele><time>2013-09-11T11:39:23Z</time></trkpt><trkpt lat="51.8201492541" lon="-2.0843343996"><ele>248.64</ele><time>2013-09-11T11:39:36Z</time></trkpt><trkpt lat="51.8202091847" lon="-2.0842790790"><ele>248.64</ele><time>2013-09-11T11:39:43Z</time></trkpt><trkpt lat="51.8203334883" lon="-2.0841685217"><ele>248.64</ele><time>2013-09-11T11:39:55Z</time></trkpt><trkpt lat="51.8204649165" lon="-2.0840574615"><ele>247.68</ele><time>2013-09-11T11:40:08Z</time></trkpt><trkpt lat="51.8205553573" lon="-2.0840108581"><ele>248.16</ele><time>2013-09-11T11:40:20Z</time></trkpt><trkpt lat="51.8206600472" lon="-2.0839233510"><ele>248.16</ele><time>2013-09-11T11:40:32Z</time></trkpt><trkpt lat="51.8208133522" lon="-2.0838847943"><ele>248.16</ele><time>2013-09-11T11:40:46Z</time></trkpt><trkpt lat="51.8209419306" lon="-2.0837982092"><ele>248.64</ele><time>2013-09-11T11:40:58Z</time></trkpt><trkpt lat="51.8211034499" lon="-2.0836982131"><ele>248.16</ele><time>2013-09-11T11:41:13Z</time></trkpt><trkpt lat="51.8212246522" lon="-2.0835974626"><ele>247.20</ele><time>2013-09-11T11:41:27Z</time></trkpt><trkpt lat="51.8213407416" lon="-2.0835517813"><ele>246.72</ele><time>2013-09-11T11:41:38Z</time></trkpt><trkpt lat="51.8214588426" lon="-2.0835184213"><ele>247.20</ele><time>2013-09-11T11:41:51Z</time></trkpt><trkpt lat="51.8215578329" lon="-2.0835351851"><ele>247.68</ele><time>2013-09-11T11:42:01Z</time></trkpt><trkpt lat="51.8216026761" lon="-2.0835679583"><ele>247.68</ele><time>2013-09-11T11:42:16Z</time></trkpt><trkpt lat="51.8216005806" lon="-2.0835729036"><ele>247.68</ele><time>2013-09-11T11:42:37Z</time></trkpt><trkpt lat="51.8216006644" lon="-2.0835803635"><ele>248.16</ele><time>2013-09-11T11:43:02Z</time></trkpt><trkpt lat="51.8215986528" lon="-2.0835603308"><ele>248.16</ele><time>2013-09-11T11:43:15Z</time></trkpt><trkpt lat="51.8216103874" lon="-2.0835673716"><ele>247.68</ele><time>2013-09-11T11:43:23Z</time></trkpt><trkpt lat="51.8216793705" lon="-2.0835474227"><ele>248.64</ele><time>2013-09-11T11:43:30Z</time></trkpt><trkpt lat="51.8217175920" lon="-2.0835260488"><ele>248.64</ele><time>2013-09-11T11:43:34Z</time></trkpt><trkpt lat="51.8218451645" lon="-2.0834657829"><ele>249.12</ele><time>2013-09-11T11:43:48Z</time></trkpt><trkpt lat="51.8218965456" lon="-2.0834977180"><ele>249.12</ele><time>2013-09-11T11:44:02Z</time></trkpt><trkpt lat="51.8219699711" lon="-2.0835183375"><ele>249.60</ele><time>2013-09-11T11:44:14Z</time></trkpt><trkpt lat="51.8219900038" lon="-2.0835351851"><ele>250.08</ele><time>2013-09-11T11:44:16Z</time></trkpt><trkpt lat="51.8220364396" lon="-2.0836389530"><ele>251.04</ele><time>2013-09-11T11:44:25Z</time></trkpt><trkpt lat="51.8220286444" lon="-2.0836718939"><ele>250.56</ele><time>2013-09-11T11:44:27Z</time></trkpt><trkpt lat="51.8220251240" lon="-2.0837196708"><ele>251.04</ele><time>2013-09-11T11:44:30Z</time></trkpt><trkpt lat="51.8220236991" lon="-2.0837521087"><ele>251.04</ele><time>2013-09-11T11:44:32Z</time></trkpt><trkpt lat="51.8220202625" lon="-2.0838205051"><ele>251.04</ele><time>2013-09-11T11:44:36Z</time></trkpt><trkpt lat="51.8220103718" lon="-2.0840763208"><ele>251.52</ele><time>2013-09-11T11:44:49Z</time></trkpt><trkpt lat="51.8219779339" lon="-2.0842237584"><ele>252.48</ele><time>2013-09-11T11:44:57Z</time></trkpt><trkpt lat="51.8219428137" lon="-2.0843496546"><ele>254.89</ele><time>2013-09-11T11:45:09Z</time></trkpt><trkpt lat="51.8219388742" lon="-2.0843538456"><ele>255.37</ele><time>2013-09-11T11:45:28Z</time></trkpt><trkpt lat="51.8219393771" lon="-2.0843537617"><ele>254.89</ele><time>2013-09-11T11:45:31Z</time></trkpt></trkseg></trk></gpx>